<?xml version="1.0" encoding="UTF-8" standalone="no" ?>
<gpx xmlns="http://www.topografix.com/GPX/1/1" xmlns:xsi="http://www.w3.org/2001/XMLSchema-instance" xsi:schemaLocation="http://www.topografix.com/GPX/1/1 http://www.topografix.com/GPX/1/1/gpx.xsd" version="1.1" creator="VisuGPX - https://www.visugpx.com">
  <metadata>
    <name>randonneedes glacis</name>
    <desc><![CDATA[fin du parcours 3 (17km à faire avant)
]]></desc>
  </metadata>
  <trk>
    <name><![CDATA[Sequence 1]]></name>
    <trkseg>
      <trkpt lat="50.48529" lon="1.744">
        <ele>-5</ele>
        <time>2015-03-31T12:40:24Z</time>
      </trkpt>
      <trkpt lat="50.48529" lon="1.744">
        <ele>-5</ele>
        <time>2015-03-31T12:40:35Z</time>
      </trkpt>
      <trkpt lat="50.48529" lon="1.744">
        <ele>-5</ele>
        <time>2015-03-31T12:40:46Z</time>
      </trkpt>
      <trkpt lat="50.48529" lon="1.744">
        <ele>-5</ele>
        <time>2015-03-31T12:40:59Z</time>
      </trkpt>
      <trkpt lat="50.4853" lon="1.744">
        <ele>-1</ele>
        <time>2015-03-31T12:41:11Z</time>
      </trkpt>
      <trkpt lat="50.4853" lon="1.744">
        <ele>-1</ele>
        <time>2015-03-31T12:41:19Z</time>
      </trkpt>
      <trkpt lat="50.48531" lon="1.74401">
        <ele>-1</ele>
        <time>2015-03-31T12:41:30Z</time>
      </trkpt>
      <trkpt lat="50.48531" lon="1.74403">
        <ele>1</ele>
        <time>2015-03-31T12:41:51Z</time>
      </trkpt>
      <trkpt lat="50.48531" lon="1.74404">
        <ele>1</ele>
        <time>2015-03-31T12:41:52Z</time>
      </trkpt>
      <trkpt lat="50.48522" lon="1.74433">
        <ele>4</ele>
        <time>2015-03-31T12:42:03Z</time>
      </trkpt>
      <trkpt lat="50.4851" lon="1.74472">
        <ele>3</ele>
        <time>2015-03-31T12:42:14Z</time>
      </trkpt>
      <trkpt lat="50.48498" lon="1.74515">
        <ele>4</ele>
        <time>2015-03-31T12:42:25Z</time>
      </trkpt>
      <trkpt lat="50.48485" lon="1.74563">
        <ele>6</ele>
        <time>2015-03-31T12:42:36Z</time>
      </trkpt>
      <trkpt lat="50.48387" lon="1.74741">
        <ele>7</ele>
        <time>2015-03-31T12:43:20Z</time>
      </trkpt>
      <trkpt lat="50.48363" lon="1.74785">
        <ele>6</ele>
        <time>2015-03-31T12:43:31Z</time>
      </trkpt>
      <trkpt lat="50.48339" lon="1.74829">
        <ele>4</ele>
        <time>2015-03-31T12:43:42Z</time>
      </trkpt>
      <trkpt lat="50.48196" lon="1.75251">
        <ele>7</ele>
        <time>2015-03-31T12:45:21Z</time>
      </trkpt>
      <trkpt lat="50.48223" lon="1.75275">
        <ele>11</ele>
        <time>2015-03-31T12:45:32Z</time>
      </trkpt>
      <trkpt lat="50.48251" lon="1.75297">
        <ele>17</ele>
        <time>2015-03-31T12:45:45Z</time>
      </trkpt>
      <trkpt lat="50.48273" lon="1.75308">
        <ele>15</ele>
        <time>2015-03-31T12:45:54Z</time>
      </trkpt>
      <trkpt lat="50.48299" lon="1.75272">
        <ele>11</ele>
        <time>2015-03-31T12:46:05Z</time>
      </trkpt>
      <trkpt lat="50.48351" lon="1.75192">
        <ele>12</ele>
        <time>2015-03-31T12:46:27Z</time>
      </trkpt>
      <trkpt lat="50.48368" lon="1.75144">
        <ele>9</ele>
        <time>2015-03-31T12:46:38Z</time>
      </trkpt>
      <trkpt lat="50.48397" lon="1.75134">
        <ele>7</ele>
        <time>2015-03-31T12:46:49Z</time>
      </trkpt>
      <trkpt lat="50.48417" lon="1.75154">
        <ele>9</ele>
        <time>2015-03-31T12:47:00Z</time>
      </trkpt>
      <trkpt lat="50.48434" lon="1.7518">
        <ele>11</ele>
        <time>2015-03-31T12:47:11Z</time>
      </trkpt>
      <trkpt lat="50.48449" lon="1.75207">
        <ele>12</ele>
        <time>2015-03-31T12:47:22Z</time>
      </trkpt>
      <trkpt lat="50.48459" lon="1.75241">
        <ele>12</ele>
        <time>2015-03-31T12:47:33Z</time>
      </trkpt>
      <trkpt lat="50.48464" lon="1.7528">
        <ele>13</ele>
        <time>2015-03-31T12:47:44Z</time>
      </trkpt>
      <trkpt lat="50.48465" lon="1.75317">
        <ele>16</ele>
        <time>2015-03-31T12:47:55Z</time>
      </trkpt>
      <trkpt lat="50.48471" lon="1.75357">
        <ele>16</ele>
        <time>2015-03-31T12:48:06Z</time>
      </trkpt>
      <trkpt lat="50.48477" lon="1.75395">
        <ele>13</ele>
        <time>2015-03-31T12:48:17Z</time>
      </trkpt>
      <trkpt lat="50.48483" lon="1.7544">
        <ele>12</ele>
        <time>2015-03-31T12:48:28Z</time>
      </trkpt>
      <trkpt lat="50.48492" lon="1.75489">
        <ele>12</ele>
        <time>2015-03-31T12:48:39Z</time>
      </trkpt>
      <trkpt lat="50.48527" lon="1.75589">
        <ele>15</ele>
        <time>2015-03-31T12:49:01Z</time>
      </trkpt>
      <trkpt lat="50.4854" lon="1.75638">
        <ele>12</ele>
        <time>2015-03-31T12:49:12Z</time>
      </trkpt>
      <trkpt lat="50.48547" lon="1.75696">
        <ele>12</ele>
        <time>2015-03-31T12:49:23Z</time>
      </trkpt>
      <trkpt lat="50.48555" lon="1.7575">
        <ele>11</ele>
        <time>2015-03-31T12:49:34Z</time>
      </trkpt>
      <trkpt lat="50.48563" lon="1.75805">
        <ele>10</ele>
        <time>2015-03-31T12:49:45Z</time>
      </trkpt>
      <trkpt lat="50.48574" lon="1.75852">
        <ele>13</ele>
        <time>2015-03-31T12:49:56Z</time>
      </trkpt>
      <trkpt lat="50.48594" lon="1.75891">
        <ele>16</ele>
        <time>2015-03-31T12:50:07Z</time>
      </trkpt>
      <trkpt lat="50.48617" lon="1.7593">
        <ele>19</ele>
        <time>2015-03-31T12:50:18Z</time>
      </trkpt>
      <trkpt lat="50.48641" lon="1.75971">
        <ele>21</ele>
        <time>2015-03-31T12:50:29Z</time>
      </trkpt>
      <trkpt lat="50.48663" lon="1.76011">
        <ele>22</ele>
        <time>2015-03-31T12:50:40Z</time>
      </trkpt>
      <trkpt lat="50.48685" lon="1.76051">
        <ele>22</ele>
        <time>2015-03-31T12:50:51Z</time>
      </trkpt>
      <trkpt lat="50.48708" lon="1.7609">
        <ele>24</ele>
        <time>2015-03-31T12:51:02Z</time>
      </trkpt>
      <trkpt lat="50.48731" lon="1.76127">
        <ele>27</ele>
        <time>2015-03-31T12:51:13Z</time>
      </trkpt>
      <trkpt lat="50.48753" lon="1.76162">
        <ele>28</ele>
        <time>2015-03-31T12:51:24Z</time>
      </trkpt>
      <trkpt lat="50.48775" lon="1.76197">
        <ele>28</ele>
        <time>2015-03-31T12:51:35Z</time>
      </trkpt>
      <trkpt lat="50.48798" lon="1.76229">
        <ele>29</ele>
        <time>2015-03-31T12:51:46Z</time>
      </trkpt>
      <trkpt lat="50.48826" lon="1.76253">
        <ele>33</ele>
        <time>2015-03-31T12:51:57Z</time>
      </trkpt>
      <trkpt lat="50.48855" lon="1.76259">
        <ele>35</ele>
        <time>2015-03-31T12:52:08Z</time>
      </trkpt>
      <trkpt lat="50.48886" lon="1.76264">
        <ele>36</ele>
        <time>2015-03-31T12:52:19Z</time>
      </trkpt>
      <trkpt lat="50.48917" lon="1.76272">
        <ele>37</ele>
        <time>2015-03-31T12:52:30Z</time>
      </trkpt>
      <trkpt lat="50.48947" lon="1.76278">
        <ele>37</ele>
        <time>2015-03-31T12:52:41Z</time>
      </trkpt>
      <trkpt lat="50.48976" lon="1.76283">
        <ele>38</ele>
        <time>2015-03-31T12:52:52Z</time>
      </trkpt>
      <trkpt lat="50.49006" lon="1.76289">
        <ele>39</ele>
        <time>2015-03-31T12:53:03Z</time>
      </trkpt>
      <trkpt lat="50.49035" lon="1.76293">
        <ele>40</ele>
        <time>2015-03-31T12:53:14Z</time>
      </trkpt>
      <trkpt lat="50.49065" lon="1.76302">
        <ele>39</ele>
        <time>2015-03-31T12:53:25Z</time>
      </trkpt>
      <trkpt lat="50.49096" lon="1.7631">
        <ele>41</ele>
        <time>2015-03-31T12:53:36Z</time>
      </trkpt>
      <trkpt lat="50.49127" lon="1.76316">
        <ele>40</ele>
        <time>2015-03-31T12:53:47Z</time>
      </trkpt>
      <trkpt lat="50.49169" lon="1.7633">
        <ele>40</ele>
        <time>2015-03-31T12:54:01Z</time>
      </trkpt>
      <trkpt lat="50.49191" lon="1.76336">
        <ele>40</ele>
        <time>2015-03-31T12:54:09Z</time>
      </trkpt>
      <trkpt lat="50.49218" lon="1.76338">
        <ele>39</ele>
        <time>2015-03-31T12:54:19Z</time>
      </trkpt>
      <trkpt lat="50.49237" lon="1.76319">
        <ele>38</ele>
        <time>2015-03-31T12:54:30Z</time>
      </trkpt>
      <trkpt lat="50.49257" lon="1.76291">
        <ele>41</ele>
        <time>2015-03-31T12:54:45Z</time>
      </trkpt>
      <trkpt lat="50.49268" lon="1.76276">
        <ele>41</ele>
        <time>2015-03-31T12:54:52Z</time>
      </trkpt>
      <trkpt lat="50.49295" lon="1.76284">
        <ele>42</ele>
        <time>2015-03-31T12:55:03Z</time>
      </trkpt>
      <trkpt lat="50.49337" lon="1.76321">
        <ele>48</ele>
        <time>2015-03-31T12:55:21Z</time>
      </trkpt>
      <trkpt lat="50.49346" lon="1.76329">
        <ele>48</ele>
        <time>2015-03-31T12:55:25Z</time>
      </trkpt>
      <trkpt lat="50.49369" lon="1.76351">
        <ele>51</ele>
        <time>2015-03-31T12:55:36Z</time>
      </trkpt>
      <trkpt lat="50.49394" lon="1.76376">
        <ele>53</ele>
        <time>2015-03-31T12:55:47Z</time>
      </trkpt>
      <trkpt lat="50.49421" lon="1.76401">
        <ele>51</ele>
        <time>2015-03-31T12:55:58Z</time>
      </trkpt>
      <trkpt lat="50.49448" lon="1.76426">
        <ele>55</ele>
        <time>2015-03-31T12:56:09Z</time>
      </trkpt>
      <trkpt lat="50.49499" lon="1.7647">
        <ele>55</ele>
        <time>2015-03-31T12:56:29Z</time>
      </trkpt>
      <trkpt lat="50.49506" lon="1.76475">
        <ele>56</ele>
        <time>2015-03-31T12:56:32Z</time>
      </trkpt>
      <trkpt lat="50.4953" lon="1.76497">
        <ele>56</ele>
        <time>2015-03-31T12:56:42Z</time>
      </trkpt>
      <trkpt lat="50.49562" lon="1.76526">
        <ele>57</ele>
        <time>2015-03-31T12:56:53Z</time>
      </trkpt>
      <trkpt lat="50.49593" lon="1.76551">
        <ele>62</ele>
        <time>2015-03-31T12:57:04Z</time>
      </trkpt>
      <trkpt lat="50.49623" lon="1.76577">
        <ele>65</ele>
        <time>2015-03-31T12:57:15Z</time>
      </trkpt>
      <trkpt lat="50.49653" lon="1.76605">
        <ele>65</ele>
        <time>2015-03-31T12:57:26Z</time>
      </trkpt>
      <trkpt lat="50.49687" lon="1.76638">
        <ele>64</ele>
        <time>2015-03-31T12:57:39Z</time>
      </trkpt>
      <trkpt lat="50.49711" lon="1.76659">
        <ele>63</ele>
        <time>2015-03-31T12:57:48Z</time>
      </trkpt>
      <trkpt lat="50.49742" lon="1.76685">
        <ele>64</ele>
        <time>2015-03-31T12:57:59Z</time>
      </trkpt>
      <trkpt lat="50.49769" lon="1.76708">
        <ele>65</ele>
        <time>2015-03-31T12:58:10Z</time>
      </trkpt>
      <trkpt lat="50.49806" lon="1.7674">
        <ele>62</ele>
        <time>2015-03-31T12:58:24Z</time>
      </trkpt>
      <trkpt lat="50.49832" lon="1.76756">
        <ele>64</ele>
        <time>2015-03-31T12:58:35Z</time>
      </trkpt>
      <trkpt lat="50.49853" lon="1.7675">
        <ele>64</ele>
        <time>2015-03-31T12:58:43Z</time>
      </trkpt>
      <trkpt lat="50.49904" lon="1.76732">
        <ele>63</ele>
        <time>2015-03-31T12:59:04Z</time>
      </trkpt>
      <trkpt lat="50.49906" lon="1.76731">
        <ele>64</ele>
        <time>2015-03-31T12:59:05Z</time>
      </trkpt>
      <trkpt lat="50.4994" lon="1.7672">
        <ele>68</ele>
        <time>2015-03-31T12:59:18Z</time>
      </trkpt>
      <trkpt lat="50.49966" lon="1.76714">
        <ele>65</ele>
        <time>2015-03-31T12:59:27Z</time>
      </trkpt>
      <trkpt lat="50.49984" lon="1.76727">
        <ele>64</ele>
        <time>2015-03-31T12:59:38Z</time>
      </trkpt>
      <trkpt lat="50.49982" lon="1.76728">
        <ele>63</ele>
        <time>2015-03-31T12:59:49Z</time>
      </trkpt>
      <trkpt lat="50.49967" lon="1.76768">
        <ele>62</ele>
        <time>2015-03-31T13:00:00Z</time>
      </trkpt>
      <trkpt lat="50.49762" lon="1.77937">
        <ele>59</ele>
        <time>2015-03-31T13:03:49Z</time>
      </trkpt>
      <trkpt lat="50.49793" lon="1.77962">
        <ele>61</ele>
        <time>2015-03-31T13:04:01Z</time>
      </trkpt>
      <trkpt lat="50.4983" lon="1.77969">
        <ele>62</ele>
        <time>2015-03-31T13:04:13Z</time>
      </trkpt>
      <trkpt lat="50.49872" lon="1.77997">
        <ele>62</ele>
        <time>2015-03-31T13:04:30Z</time>
      </trkpt>
      <trkpt lat="50.4989" lon="1.78011">
        <ele>60</ele>
        <time>2015-03-31T13:04:37Z</time>
      </trkpt>
      <trkpt lat="50.49911" lon="1.78016">
        <ele>62</ele>
        <time>2015-03-31T13:04:44Z</time>
      </trkpt>
      <trkpt lat="50.4994" lon="1.78009">
        <ele>67</ele>
        <time>2015-03-31T13:04:55Z</time>
      </trkpt>
      <trkpt lat="50.49963" lon="1.78001">
        <ele>70</ele>
        <time>2015-03-31T13:05:06Z</time>
      </trkpt>
      <trkpt lat="50.49987" lon="1.78001">
        <ele>73</ele>
        <time>2015-03-31T13:05:17Z</time>
      </trkpt>
      <trkpt lat="50.50019" lon="1.78032">
        <ele>73</ele>
        <time>2015-03-31T13:05:28Z</time>
      </trkpt>
      <trkpt lat="50.50051" lon="1.78062">
        <ele>73</ele>
        <time>2015-03-31T13:05:39Z</time>
      </trkpt>
      <trkpt lat="50.50167" lon="1.78156">
        <ele>70</ele>
        <time>2015-03-31T13:06:23Z</time>
      </trkpt>
      <trkpt lat="50.50183" lon="1.78125">
        <ele>70</ele>
        <time>2015-03-31T13:06:34Z</time>
      </trkpt>
      <trkpt lat="50.50203" lon="1.78093">
        <ele>66</ele>
        <time>2015-03-31T13:06:45Z</time>
      </trkpt>
      <trkpt lat="50.50237" lon="1.78035">
        <ele>62</ele>
        <time>2015-03-31T13:07:03Z</time>
      </trkpt>
      <trkpt lat="50.50303" lon="1.77925">
        <ele>59</ele>
        <time>2015-03-31T13:07:31Z</time>
      </trkpt>
      <trkpt lat="50.5032" lon="1.77889">
        <ele>60</ele>
        <time>2015-03-31T13:07:42Z</time>
      </trkpt>
      <trkpt lat="50.50334" lon="1.77859">
        <ele>61</ele>
        <time>2015-03-31T13:07:51Z</time>
      </trkpt>
      <trkpt lat="50.50348" lon="1.77834">
        <ele>65</ele>
        <time>2015-03-31T13:08:02Z</time>
      </trkpt>
      <trkpt lat="50.50362" lon="1.77805">
        <ele>65</ele>
        <time>2015-03-31T13:08:13Z</time>
      </trkpt>
      <trkpt lat="50.50386" lon="1.77763">
        <ele>65</ele>
        <time>2015-03-31T13:08:32Z</time>
      </trkpt>
      <trkpt lat="50.50392" lon="1.77752">
        <ele>64</ele>
        <time>2015-03-31T13:08:35Z</time>
      </trkpt>
      <trkpt lat="50.50408" lon="1.7772">
        <ele>63</ele>
        <time>2015-03-31T13:08:46Z</time>
      </trkpt>
      <trkpt lat="50.50431" lon="1.77686">
        <ele>61</ele>
        <time>2015-03-31T13:08:57Z</time>
      </trkpt>
      <trkpt lat="50.50451" lon="1.77644">
        <ele>61</ele>
        <time>2015-03-31T13:09:08Z</time>
      </trkpt>
      <trkpt lat="50.50473" lon="1.77605">
        <ele>61</ele>
        <time>2015-03-31T13:09:20Z</time>
      </trkpt>
      <trkpt lat="50.50511" lon="1.77534">
        <ele>58</ele>
        <time>2015-03-31T13:09:38Z</time>
      </trkpt>
      <trkpt lat="50.50516" lon="1.77524">
        <ele>57</ele>
        <time>2015-03-31T13:09:41Z</time>
      </trkpt>
      <trkpt lat="50.50533" lon="1.77494">
        <ele>59</ele>
        <time>2015-03-31T13:09:52Z</time>
      </trkpt>
      <trkpt lat="50.50547" lon="1.77466">
        <ele>61</ele>
        <time>2015-03-31T13:10:04Z</time>
      </trkpt>
      <trkpt lat="50.50561" lon="1.77445">
        <ele>64</ele>
        <time>2015-03-31T13:10:17Z</time>
      </trkpt>
      <trkpt lat="50.50569" lon="1.7743">
        <ele>65</ele>
        <time>2015-03-31T13:10:25Z</time>
      </trkpt>
      <trkpt lat="50.5058" lon="1.77406">
        <ele>66</ele>
        <time>2015-03-31T13:10:36Z</time>
      </trkpt>
      <trkpt lat="50.50597" lon="1.77373">
        <ele>68</ele>
        <time>2015-03-31T13:10:53Z</time>
      </trkpt>
      <trkpt lat="50.50602" lon="1.77364">
        <ele>68</ele>
        <time>2015-03-31T13:10:58Z</time>
      </trkpt>
      <trkpt lat="50.5062" lon="1.77359">
        <ele>71</ele>
        <time>2015-03-31T13:11:10Z</time>
      </trkpt>
      <trkpt lat="50.50639" lon="1.77385">
        <ele>72</ele>
        <time>2015-03-31T13:11:20Z</time>
      </trkpt>
      <trkpt lat="50.50718" lon="1.7751">
        <ele>62</ele>
        <time>2015-03-31T13:11:58Z</time>
      </trkpt>
      <trkpt lat="50.50724" lon="1.77519">
        <ele>63</ele>
        <time>2015-03-31T13:12:04Z</time>
      </trkpt>
      <trkpt lat="50.50737" lon="1.77541">
        <ele>64</ele>
        <time>2015-03-31T13:12:15Z</time>
      </trkpt>
      <trkpt lat="50.50752" lon="1.77567">
        <ele>61</ele>
        <time>2015-03-31T13:12:26Z</time>
      </trkpt>
      <trkpt lat="50.50776" lon="1.77597">
        <ele>62</ele>
        <time>2015-03-31T13:12:37Z</time>
      </trkpt>
      <trkpt lat="50.50794" lon="1.77621">
        <ele>61</ele>
        <time>2015-03-31T13:12:50Z</time>
      </trkpt>
      <trkpt lat="50.50793" lon="1.77621">
        <ele>60</ele>
        <time>2015-03-31T13:12:59Z</time>
      </trkpt>
      <trkpt lat="50.50805" lon="1.77643">
        <ele>57</ele>
        <time>2015-03-31T13:13:10Z</time>
      </trkpt>
      <trkpt lat="50.50825" lon="1.77676">
        <ele>60</ele>
        <time>2015-03-31T13:13:21Z</time>
      </trkpt>
      <trkpt lat="50.50849" lon="1.7771">
        <ele>64</ele>
        <time>2015-03-31T13:13:33Z</time>
      </trkpt>
      <trkpt lat="50.50881" lon="1.77758">
        <ele>66</ele>
        <time>2015-03-31T13:13:49Z</time>
      </trkpt>
      <trkpt lat="50.50894" lon="1.77776">
        <ele>67</ele>
        <time>2015-03-31T13:13:55Z</time>
      </trkpt>
      <trkpt lat="50.50916" lon="1.77808">
        <ele>68</ele>
        <time>2015-03-31T13:14:05Z</time>
      </trkpt>
      <trkpt lat="50.50939" lon="1.77841">
        <ele>70</ele>
        <time>2015-03-31T13:14:16Z</time>
      </trkpt>
      <trkpt lat="50.50947" lon="1.77907">
        <ele>67</ele>
        <time>2015-03-31T13:14:35Z</time>
      </trkpt>
      <trkpt lat="50.50942" lon="1.77914">
        <ele>66</ele>
        <time>2015-03-31T13:14:37Z</time>
      </trkpt>
      <trkpt lat="50.50545" lon="1.78767">
        <ele>14</ele>
        <time>2015-03-31T13:18:15Z</time>
      </trkpt>
      <trkpt lat="50.50545" lon="1.78767">
        <ele>14</ele>
        <time>2015-03-31T13:18:16Z</time>
      </trkpt>
      <trkpt lat="50.50545" lon="1.78767">
        <ele>14</ele>
        <time>2015-03-31T13:18:27Z</time>
      </trkpt>
      <trkpt lat="50.50545" lon="1.78767">
        <ele>14</ele>
        <time>2015-03-31T13:18:38Z</time>
      </trkpt>
      <trkpt lat="50.50545" lon="1.78767">
        <ele>14</ele>
        <time>2015-03-31T13:18:49Z</time>
      </trkpt>
      <trkpt lat="50.50545" lon="1.78767">
        <ele>14</ele>
        <time>2015-03-31T13:19:00Z</time>
      </trkpt>
      <trkpt lat="50.50545" lon="1.78767">
        <ele>14</ele>
        <time>2015-03-31T13:19:13Z</time>
      </trkpt>
      <trkpt lat="50.50545" lon="1.78767">
        <ele>14</ele>
        <time>2015-03-31T13:19:22Z</time>
      </trkpt>
      <trkpt lat="50.50546" lon="1.78766">
        <ele>18</ele>
        <time>2015-03-31T13:19:37Z</time>
      </trkpt>
      <trkpt lat="50.50546" lon="1.78766">
        <ele>18</ele>
        <time>2015-03-31T13:19:44Z</time>
      </trkpt>
      <trkpt lat="50.50546" lon="1.78766">
        <ele>18</ele>
        <time>2015-03-31T13:20:02Z</time>
      </trkpt>
      <trkpt lat="50.50546" lon="1.78766">
        <ele>18</ele>
        <time>2015-03-31T13:20:08Z</time>
      </trkpt>
      <trkpt lat="50.50541" lon="1.78773">
        <ele>19</ele>
        <time>2015-03-31T13:20:17Z</time>
      </trkpt>
      <trkpt lat="50.50518" lon="1.7879">
        <ele>16</ele>
        <time>2015-03-31T13:20:28Z</time>
      </trkpt>
      <trkpt lat="50.49967" lon="1.78911">
        <ele>9</ele>
        <time>2015-03-31T13:23:13Z</time>
      </trkpt>
      <trkpt lat="50.49817" lon="1.79287">
        <ele>13</ele>
        <time>2015-03-31T13:24:38Z</time>
      </trkpt>
      <trkpt lat="50.4981" lon="1.79294">
        <ele>13</ele>
        <time>2015-03-31T13:24:41Z</time>
      </trkpt>
      <trkpt lat="50.49783" lon="1.79319">
        <ele>12</ele>
        <time>2015-03-31T13:24:52Z</time>
      </trkpt>
      <trkpt lat="50.49762" lon="1.7934">
        <ele>12</ele>
        <time>2015-03-31T13:25:04Z</time>
      </trkpt>
      <trkpt lat="50.49738" lon="1.79335">
        <ele>14</ele>
        <time>2015-03-31T13:25:15Z</time>
      </trkpt>
      <trkpt lat="50.49724" lon="1.79349">
        <ele>17</ele>
        <time>2015-03-31T13:25:25Z</time>
      </trkpt>
      <trkpt lat="50.4971" lon="1.79359">
        <ele>23</ele>
        <time>2015-03-31T13:25:39Z</time>
      </trkpt>
      <trkpt lat="50.49703" lon="1.79365">
        <ele>26</ele>
        <time>2015-03-31T13:25:47Z</time>
      </trkpt>
      <trkpt lat="50.49698" lon="1.79377">
        <ele>40</ele>
        <time>2015-03-31T13:25:58Z</time>
      </trkpt>
      <trkpt lat="50.49684" lon="1.79385">
        <ele>37</ele>
        <time>2015-03-31T13:26:09Z</time>
      </trkpt>
      <trkpt lat="50.49678" lon="1.79399">
        <ele>49</ele>
        <time>2015-03-31T13:26:20Z</time>
      </trkpt>
      <trkpt lat="50.49671" lon="1.79421">
        <ele>54</ele>
        <time>2015-03-31T13:26:31Z</time>
      </trkpt>
      <trkpt lat="50.49649" lon="1.79423">
        <ele>44</ele>
        <time>2015-03-31T13:26:42Z</time>
      </trkpt>
      <trkpt lat="50.49629" lon="1.79424">
        <ele>42</ele>
        <time>2015-03-31T13:26:55Z</time>
      </trkpt>
      <trkpt lat="50.49616" lon="1.79429">
        <ele>39</ele>
        <time>2015-03-31T13:27:06Z</time>
      </trkpt>
      <trkpt lat="50.496" lon="1.79436">
        <ele>34</ele>
        <time>2015-03-31T13:27:18Z</time>
      </trkpt>
      <trkpt lat="50.49595" lon="1.7944">
        <ele>34</ele>
        <time>2015-03-31T13:27:26Z</time>
      </trkpt>
      <trkpt lat="50.49584" lon="1.79446">
        <ele>33</ele>
        <time>2015-03-31T13:27:37Z</time>
      </trkpt>
      <trkpt lat="50.49576" lon="1.79454">
        <ele>33</ele>
        <time>2015-03-31T13:27:48Z</time>
      </trkpt>
      <trkpt lat="50.49566" lon="1.79476">
        <ele>38</ele>
        <time>2015-03-31T13:28:08Z</time>
      </trkpt>
      <trkpt lat="50.49565" lon="1.79478">
        <ele>38</ele>
        <time>2015-03-31T13:28:10Z</time>
      </trkpt>
      <trkpt lat="50.49558" lon="1.79486">
        <ele>41</ele>
        <time>2015-03-31T13:28:21Z</time>
      </trkpt>
      <trkpt lat="50.49551" lon="1.79491">
        <ele>44</ele>
        <time>2015-03-31T13:28:32Z</time>
      </trkpt>
      <trkpt lat="50.49543" lon="1.79492">
        <ele>45</ele>
        <time>2015-03-31T13:28:42Z</time>
      </trkpt>
      <trkpt lat="50.49536" lon="1.79493">
        <ele>45</ele>
        <time>2015-03-31T13:28:53Z</time>
      </trkpt>
      <trkpt lat="50.49527" lon="1.79496">
        <ele>45</ele>
        <time>2015-03-31T13:29:07Z</time>
      </trkpt>
      <trkpt lat="50.4952" lon="1.79499">
        <ele>46</ele>
        <time>2015-03-31T13:29:16Z</time>
      </trkpt>
      <trkpt lat="50.49505" lon="1.79505">
        <ele>44</ele>
        <time>2015-03-31T13:29:32Z</time>
      </trkpt>
      <trkpt lat="50.49501" lon="1.79509">
        <ele>45</ele>
        <time>2015-03-31T13:29:37Z</time>
      </trkpt>
      <trkpt lat="50.49492" lon="1.79516">
        <ele>51</ele>
        <time>2015-03-31T13:29:48Z</time>
      </trkpt>
      <trkpt lat="50.49483" lon="1.79527">
        <ele>55</ele>
        <time>2015-03-31T13:30:00Z</time>
      </trkpt>
      <trkpt lat="50.49473" lon="1.79539">
        <ele>54</ele>
        <time>2015-03-31T13:30:14Z</time>
      </trkpt>
      <trkpt lat="50.49462" lon="1.79548">
        <ele>57</ele>
        <time>2015-03-31T13:30:26Z</time>
      </trkpt>
      <trkpt lat="50.49454" lon="1.79557">
        <ele>57</ele>
        <time>2015-03-31T13:30:34Z</time>
      </trkpt>
      <trkpt lat="50.49439" lon="1.79572">
        <ele>58</ele>
        <time>2015-03-31T13:30:50Z</time>
      </trkpt>
      <trkpt lat="50.49435" lon="1.79575">
        <ele>58</ele>
        <time>2015-03-31T13:30:54Z</time>
      </trkpt>
      <trkpt lat="50.49428" lon="1.79581">
        <ele>64</ele>
        <time>2015-03-31T13:31:05Z</time>
      </trkpt>
      <trkpt lat="50.49424" lon="1.79582">
        <ele>66</ele>
        <time>2015-03-31T13:31:16Z</time>
      </trkpt>
      <trkpt lat="50.49412" lon="1.79591">
        <ele>68</ele>
        <time>2015-03-31T13:31:27Z</time>
      </trkpt>
      <trkpt lat="50.49398" lon="1.79602">
        <ele>70</ele>
        <time>2015-03-31T13:31:38Z</time>
      </trkpt>
      <trkpt lat="50.49382" lon="1.79616">
        <ele>70</ele>
        <time>2015-03-31T13:31:49Z</time>
      </trkpt>
      <trkpt lat="50.49365" lon="1.7963">
        <ele>68</ele>
        <time>2015-03-31T13:32:00Z</time>
      </trkpt>
      <trkpt lat="50.4935" lon="1.79642">
        <ele>69</ele>
        <time>2015-03-31T13:32:11Z</time>
      </trkpt>
      <trkpt lat="50.4933" lon="1.79658">
        <ele>72</ele>
        <time>2015-03-31T13:32:24Z</time>
      </trkpt>
      <trkpt lat="50.49316" lon="1.79669">
        <ele>71</ele>
        <time>2015-03-31T13:32:33Z</time>
      </trkpt>
      <trkpt lat="50.49299" lon="1.79688">
        <ele>72</ele>
        <time>2015-03-31T13:32:44Z</time>
      </trkpt>
      <trkpt lat="50.49282" lon="1.79702">
        <ele>73</ele>
        <time>2015-03-31T13:32:55Z</time>
      </trkpt>
      <trkpt lat="50.49261" lon="1.79717">
        <ele>74</ele>
        <time>2015-03-31T13:33:06Z</time>
      </trkpt>
      <trkpt lat="50.49242" lon="1.79735">
        <ele>76</ele>
        <time>2015-03-31T13:33:17Z</time>
      </trkpt>
      <trkpt lat="50.49194" lon="1.79772">
        <ele>77</ele>
        <time>2015-03-31T13:33:37Z</time>
      </trkpt>
      <trkpt lat="50.49188" lon="1.79776">
        <ele>78</ele>
        <time>2015-03-31T13:33:39Z</time>
      </trkpt>
      <trkpt lat="50.49145" lon="1.79809">
        <ele>76</ele>
        <time>2015-03-31T13:33:57Z</time>
      </trkpt>
      <trkpt lat="50.49132" lon="1.79813">
        <ele>72</ele>
        <time>2015-03-31T13:34:03Z</time>
      </trkpt>
      <trkpt lat="50.49115" lon="1.79827">
        <ele>71</ele>
        <time>2015-03-31T13:34:12Z</time>
      </trkpt>
      <trkpt lat="50.491" lon="1.79849">
        <ele>71</ele>
        <time>2015-03-31T13:34:23Z</time>
      </trkpt>
      <trkpt lat="50.49101" lon="1.79852">
        <ele>72</ele>
        <time>2015-03-31T13:34:34Z</time>
      </trkpt>
      <trkpt lat="50.49101" lon="1.79852">
        <ele>72</ele>
        <time>2015-03-31T13:34:45Z</time>
      </trkpt>
      <trkpt lat="50.49101" lon="1.79852">
        <ele>72</ele>
        <time>2015-03-31T13:35:01Z</time>
      </trkpt>
      <trkpt lat="50.49101" lon="1.79852">
        <ele>72</ele>
        <time>2015-03-31T13:35:07Z</time>
      </trkpt>
      <trkpt lat="50.49101" lon="1.79852">
        <ele>72</ele>
        <time>2015-03-31T13:35:20Z</time>
      </trkpt>
      <trkpt lat="50.49101" lon="1.79852">
        <ele>72</ele>
        <time>2015-03-31T13:35:29Z</time>
      </trkpt>
      <trkpt lat="50.49101" lon="1.79852">
        <ele>72</ele>
        <time>2015-03-31T13:35:40Z</time>
      </trkpt>
      <trkpt lat="50.4909" lon="1.79866">
        <ele>76</ele>
        <time>2015-03-31T13:35:54Z</time>
      </trkpt>
      <trkpt lat="50.49075" lon="1.7988">
        <ele>73</ele>
        <time>2015-03-31T13:36:02Z</time>
      </trkpt>
      <trkpt lat="50.4905" lon="1.79914">
        <ele>75</ele>
        <time>2015-03-31T13:36:14Z</time>
      </trkpt>
      <trkpt lat="50.49021" lon="1.7995">
        <ele>75</ele>
        <time>2015-03-31T13:36:27Z</time>
      </trkpt>
      <trkpt lat="50.49001" lon="1.79973">
        <ele>73</ele>
        <time>2015-03-31T13:36:35Z</time>
      </trkpt>
      <trkpt lat="50.48974" lon="1.80004">
        <ele>73</ele>
        <time>2015-03-31T13:36:46Z</time>
      </trkpt>
      <trkpt lat="50.48949" lon="1.80033">
        <ele>68</ele>
        <time>2015-03-31T13:36:58Z</time>
      </trkpt>
      <trkpt lat="50.48926" lon="1.8007">
        <ele>65</ele>
        <time>2015-03-31T13:37:10Z</time>
      </trkpt>
      <trkpt lat="50.48911" lon="1.80178">
        <ele>57</ele>
        <time>2015-03-31T13:37:31Z</time>
      </trkpt>
      <trkpt lat="50.48914" lon="1.80237">
        <ele>58</ele>
        <time>2015-03-31T13:37:42Z</time>
      </trkpt>
      <trkpt lat="50.48884" lon="1.80326">
        <ele>57</ele>
        <time>2015-03-31T13:38:03Z</time>
      </trkpt>
      <trkpt lat="50.48854" lon="1.80323">
        <ele>49</ele>
        <time>2015-03-31T13:38:14Z</time>
      </trkpt>
      <trkpt lat="50.48843" lon="1.80311">
        <ele>47</ele>
        <time>2015-03-31T13:38:25Z</time>
      </trkpt>
      <trkpt lat="50.48826" lon="1.80286">
        <ele>48</ele>
        <time>2015-03-31T13:38:41Z</time>
      </trkpt>
      <trkpt lat="50.48818" lon="1.80275">
        <ele>48</ele>
        <time>2015-03-31T13:38:49Z</time>
      </trkpt>
      <trkpt lat="50.48812" lon="1.8027">
        <ele>51</ele>
        <time>2015-03-31T13:38:58Z</time>
      </trkpt>
      <trkpt lat="50.48804" lon="1.80273">
        <ele>55</ele>
        <time>2015-03-31T13:39:09Z</time>
      </trkpt>
      <trkpt lat="50.48791" lon="1.80282">
        <ele>59</ele>
        <time>2015-03-31T13:39:27Z</time>
      </trkpt>
      <trkpt lat="50.48783" lon="1.8029">
        <ele>59</ele>
        <time>2015-03-31T13:39:41Z</time>
      </trkpt>
      <trkpt lat="50.48781" lon="1.80293">
        <ele>58</ele>
        <time>2015-03-31T13:39:44Z</time>
      </trkpt>
      <trkpt lat="50.48774" lon="1.80296">
        <ele>58</ele>
        <time>2015-03-31T13:39:53Z</time>
      </trkpt>
      <trkpt lat="50.48767" lon="1.80304">
        <ele>60</ele>
        <time>2015-03-31T13:40:04Z</time>
      </trkpt>
      <trkpt lat="50.48758" lon="1.80314">
        <ele>65</ele>
        <time>2015-03-31T13:40:15Z</time>
      </trkpt>
      <trkpt lat="50.48756" lon="1.80315">
        <ele>61</ele>
        <time>2015-03-31T13:40:26Z</time>
      </trkpt>
      <trkpt lat="50.48747" lon="1.80325">
        <ele>64</ele>
        <time>2015-03-31T13:40:37Z</time>
      </trkpt>
      <trkpt lat="50.48737" lon="1.80336">
        <ele>66</ele>
        <time>2015-03-31T13:40:48Z</time>
      </trkpt>
      <trkpt lat="50.48727" lon="1.80348">
        <ele>70</ele>
        <time>2015-03-31T13:40:59Z</time>
      </trkpt>
      <trkpt lat="50.48713" lon="1.80368">
        <ele>71</ele>
        <time>2015-03-31T13:41:13Z</time>
      </trkpt>
      <trkpt lat="50.48704" lon="1.80379">
        <ele>71</ele>
        <time>2015-03-31T13:41:21Z</time>
      </trkpt>
      <trkpt lat="50.4869" lon="1.80398">
        <ele>73</ele>
        <time>2015-03-31T13:41:32Z</time>
      </trkpt>
      <trkpt lat="50.48665" lon="1.80428">
        <ele>73</ele>
        <time>2015-03-31T13:41:46Z</time>
      </trkpt>
      <trkpt lat="50.48635" lon="1.80463">
        <ele>69</ele>
        <time>2015-03-31T13:41:59Z</time>
      </trkpt>
      <trkpt lat="50.48619" lon="1.80481">
        <ele>67</ele>
        <time>2015-03-31T13:42:05Z</time>
      </trkpt>
      <trkpt lat="50.48586" lon="1.8051">
        <ele>69</ele>
        <time>2015-03-31T13:42:16Z</time>
      </trkpt>
      <trkpt lat="50.48464" lon="1.80593">
        <ele>67</ele>
        <time>2015-03-31T13:43:00Z</time>
      </trkpt>
      <trkpt lat="50.48464" lon="1.80593">
        <ele>67</ele>
        <time>2015-03-31T13:43:11Z</time>
      </trkpt>
      <trkpt lat="50.4844" lon="1.80606">
        <ele>64</ele>
        <time>2015-03-31T13:43:22Z</time>
      </trkpt>
      <trkpt lat="50.48407" lon="1.80627">
        <ele>65</ele>
        <time>2015-03-31T13:43:34Z</time>
      </trkpt>
      <trkpt lat="50.48357" lon="1.80657">
        <ele>62</ele>
        <time>2015-03-31T13:43:51Z</time>
      </trkpt>
      <trkpt lat="50.4833" lon="1.80671">
        <ele>61</ele>
        <time>2015-03-31T13:44:01Z</time>
      </trkpt>
      <trkpt lat="50.48312" lon="1.8068">
        <ele>63</ele>
        <time>2015-03-31T13:44:08Z</time>
      </trkpt>
      <trkpt lat="50.48287" lon="1.80692">
        <ele>64</ele>
        <time>2015-03-31T13:44:17Z</time>
      </trkpt>
      <trkpt lat="50.4826" lon="1.80709">
        <ele>66</ele>
        <time>2015-03-31T13:44:28Z</time>
      </trkpt>
      <trkpt lat="50.48231" lon="1.80728">
        <ele>69</ele>
        <time>2015-03-31T13:44:39Z</time>
      </trkpt>
      <trkpt lat="50.48203" lon="1.80746">
        <ele>71</ele>
        <time>2015-03-31T13:44:50Z</time>
      </trkpt>
      <trkpt lat="50.48177" lon="1.80759">
        <ele>73</ele>
        <time>2015-03-31T13:45:01Z</time>
      </trkpt>
      <trkpt lat="50.48145" lon="1.8078">
        <ele>75</ele>
        <time>2015-03-31T13:45:14Z</time>
      </trkpt>
      <trkpt lat="50.48112" lon="1.80801">
        <ele>76</ele>
        <time>2015-03-31T13:45:27Z</time>
      </trkpt>
      <trkpt lat="50.48087" lon="1.80815">
        <ele>76</ele>
        <time>2015-03-31T13:45:36Z</time>
      </trkpt>
      <trkpt lat="50.48062" lon="1.80831">
        <ele>77</ele>
        <time>2015-03-31T13:45:45Z</time>
      </trkpt>
      <trkpt lat="50.48029" lon="1.80856">
        <ele>77</ele>
        <time>2015-03-31T13:45:57Z</time>
      </trkpt>
      <trkpt lat="50.48007" lon="1.80873">
        <ele>81</ele>
        <time>2015-03-31T13:46:07Z</time>
      </trkpt>
      <trkpt lat="50.47975" lon="1.8089">
        <ele>82</ele>
        <time>2015-03-31T13:46:18Z</time>
      </trkpt>
      <trkpt lat="50.47874" lon="1.80956">
        <ele>68</ele>
        <time>2015-03-31T13:46:51Z</time>
      </trkpt>
      <trkpt lat="50.4765" lon="1.81091">
        <ele>54</ele>
        <time>2015-03-31T13:48:04Z</time>
      </trkpt>
      <trkpt lat="50.4765" lon="1.81091">
        <ele>54</ele>
        <time>2015-03-31T13:48:08Z</time>
      </trkpt>
      <trkpt lat="50.4765" lon="1.81091">
        <ele>54</ele>
        <time>2015-03-31T13:48:29Z</time>
      </trkpt>
      <trkpt lat="50.4765" lon="1.81091">
        <ele>54</ele>
        <time>2015-03-31T13:48:30Z</time>
      </trkpt>
      <trkpt lat="50.4765" lon="1.81091">
        <ele>54</ele>
        <time>2015-03-31T13:48:41Z</time>
      </trkpt>
      <trkpt lat="50.4765" lon="1.81091">
        <ele>54</ele>
        <time>2015-03-31T13:48:52Z</time>
      </trkpt>
      <trkpt lat="50.4765" lon="1.81091">
        <ele>54</ele>
        <time>2015-03-31T13:49:06Z</time>
      </trkpt>
      <trkpt lat="50.4765" lon="1.81091">
        <ele>54</ele>
        <time>2015-03-31T13:49:14Z</time>
      </trkpt>
      <trkpt lat="50.4765" lon="1.81091">
        <ele>54</ele>
        <time>2015-03-31T13:49:25Z</time>
      </trkpt>
      <trkpt lat="50.4765" lon="1.81091">
        <ele>54</ele>
        <time>2015-03-31T13:49:37Z</time>
      </trkpt>
      <trkpt lat="50.4765" lon="1.81091">
        <ele>54</ele>
        <time>2015-03-31T13:49:56Z</time>
      </trkpt>
      <trkpt lat="50.4765" lon="1.81091">
        <ele>54</ele>
        <time>2015-03-31T13:49:58Z</time>
      </trkpt>
      <trkpt lat="50.4765" lon="1.81091">
        <ele>54</ele>
        <time>2015-03-31T13:50:09Z</time>
      </trkpt>
      <trkpt lat="50.4765" lon="1.81091">
        <ele>55</ele>
        <time>2015-03-31T13:50:20Z</time>
      </trkpt>
      <trkpt lat="50.4765" lon="1.81091">
        <ele>55</ele>
        <time>2015-03-31T13:50:31Z</time>
      </trkpt>
      <trkpt lat="50.47652" lon="1.81092">
        <ele>59</ele>
        <time>2015-03-31T13:50:48Z</time>
      </trkpt>
      <trkpt lat="50.47652" lon="1.81092">
        <ele>59</ele>
        <time>2015-03-31T13:50:53Z</time>
      </trkpt>
      <trkpt lat="50.47652" lon="1.81092">
        <ele>59</ele>
        <time>2015-03-31T13:51:10Z</time>
      </trkpt>
      <trkpt lat="50.47652" lon="1.81092">
        <ele>59</ele>
        <time>2015-03-31T13:51:14Z</time>
      </trkpt>
      <trkpt lat="50.47653" lon="1.81098">
        <ele>60</ele>
        <time>2015-03-31T13:51:27Z</time>
      </trkpt>
      <trkpt lat="50.47647" lon="1.8232">
        <ele>53</ele>
        <time>2015-03-31T13:55:21Z</time>
      </trkpt>
      <trkpt lat="50.47651" lon="1.82334">
        <ele>54</ele>
        <time>2015-03-31T13:55:32Z</time>
      </trkpt>
      <trkpt lat="50.47655" lon="1.82341">
        <ele>54</ele>
        <time>2015-03-31T13:55:37Z</time>
      </trkpt>
      <trkpt lat="50.4766" lon="1.82358">
        <ele>57</ele>
        <time>2015-03-31T13:55:48Z</time>
      </trkpt>
      <trkpt lat="50.47666" lon="1.82376">
        <ele>61</ele>
        <time>2015-03-31T13:55:59Z</time>
      </trkpt>
      <trkpt lat="50.47668" lon="1.82397">
        <ele>62</ele>
        <time>2015-03-31T13:56:10Z</time>
      </trkpt>
      <trkpt lat="50.47666" lon="1.8241">
        <ele>60</ele>
        <time>2015-03-31T13:56:21Z</time>
      </trkpt>
      <trkpt lat="50.47667" lon="1.82434">
        <ele>60</ele>
        <time>2015-03-31T13:56:32Z</time>
      </trkpt>
      <trkpt lat="50.47676" lon="1.82497">
        <ele>63</ele>
        <time>2015-03-31T13:56:52Z</time>
      </trkpt>
      <trkpt lat="50.47678" lon="1.82515">
        <ele>62</ele>
        <time>2015-03-31T13:56:59Z</time>
      </trkpt>
      <trkpt lat="50.47683" lon="1.82534">
        <ele>63</ele>
        <time>2015-03-31T13:57:06Z</time>
      </trkpt>
      <trkpt lat="50.47689" lon="1.82564">
        <ele>64</ele>
        <time>2015-03-31T13:57:16Z</time>
      </trkpt>
      <trkpt lat="50.47702" lon="1.82617">
        <ele>65</ele>
        <time>2015-03-31T13:57:37Z</time>
      </trkpt>
      <trkpt lat="50.47703" lon="1.82621">
        <ele>65</ele>
        <time>2015-03-31T13:57:38Z</time>
      </trkpt>
      <trkpt lat="50.47711" lon="1.82651">
        <ele>65</ele>
        <time>2015-03-31T13:57:50Z</time>
      </trkpt>
      <trkpt lat="50.4772" lon="1.82694">
        <ele>66</ele>
        <time>2015-03-31T13:58:05Z</time>
      </trkpt>
      <trkpt lat="50.47726" lon="1.82714">
        <ele>68</ele>
        <time>2015-03-31T13:58:12Z</time>
      </trkpt>
      <trkpt lat="50.47733" lon="1.82745">
        <ele>67</ele>
        <time>2015-03-31T13:58:23Z</time>
      </trkpt>
      <trkpt lat="50.47739" lon="1.82773">
        <ele>68</ele>
        <time>2015-03-31T13:58:33Z</time>
      </trkpt>
      <trkpt lat="50.47748" lon="1.82819">
        <ele>66</ele>
        <time>2015-03-31T13:58:48Z</time>
      </trkpt>
      <trkpt lat="50.47755" lon="1.82841">
        <ele>69</ele>
        <time>2015-03-31T13:58:55Z</time>
      </trkpt>
      <trkpt lat="50.47763" lon="1.8288">
        <ele>69</ele>
        <time>2015-03-31T13:59:06Z</time>
      </trkpt>
      <trkpt lat="50.47774" lon="1.82929">
        <ele>72</ele>
        <time>2015-03-31T13:59:18Z</time>
      </trkpt>
      <trkpt lat="50.47779" lon="1.82964">
        <ele>72</ele>
        <time>2015-03-31T13:59:28Z</time>
      </trkpt>
      <trkpt lat="50.47797" lon="1.83037">
        <ele>71</ele>
        <time>2015-03-31T13:59:46Z</time>
      </trkpt>
      <trkpt lat="50.47801" lon="1.83052">
        <ele>72</ele>
        <time>2015-03-31T13:59:50Z</time>
      </trkpt>
      <trkpt lat="50.47815" lon="1.83099">
        <ele>72</ele>
        <time>2015-03-31T14:00:01Z</time>
      </trkpt>
      <trkpt lat="50.47834" lon="1.83165">
        <ele>71</ele>
        <time>2015-03-31T14:00:16Z</time>
      </trkpt>
      <trkpt lat="50.47845" lon="1.83202">
        <ele>73</ele>
        <time>2015-03-31T14:00:25Z</time>
      </trkpt>
      <trkpt lat="50.47855" lon="1.83236">
        <ele>73</ele>
        <time>2015-03-31T14:00:33Z</time>
      </trkpt>
      <trkpt lat="50.47868" lon="1.83285">
        <ele>73</ele>
        <time>2015-03-31T14:00:44Z</time>
      </trkpt>
      <trkpt lat="50.47891" lon="1.83362">
        <ele>71</ele>
        <time>2015-03-31T14:01:01Z</time>
      </trkpt>
      <trkpt lat="50.4815" lon="1.84153">
        <ele>77</ele>
        <time>2015-03-31T14:03:51Z</time>
      </trkpt>
      <trkpt lat="50.4815" lon="1.84153">
        <ele>77</ele>
        <time>2015-03-31T14:04:04Z</time>
      </trkpt>
      <trkpt lat="50.4815" lon="1.84153">
        <ele>77</ele>
        <time>2015-03-31T14:04:21Z</time>
      </trkpt>
      <trkpt lat="50.4815" lon="1.84153">
        <ele>77</ele>
        <time>2015-03-31T14:04:24Z</time>
      </trkpt>
      <trkpt lat="50.4815" lon="1.84153">
        <ele>77</ele>
        <time>2015-03-31T14:04:35Z</time>
      </trkpt>
      <trkpt lat="50.48151" lon="1.84154">
        <ele>78</ele>
        <time>2015-03-31T14:04:46Z</time>
      </trkpt>
      <trkpt lat="50.48151" lon="1.84154">
        <ele>79</ele>
        <time>2015-03-31T14:04:57Z</time>
      </trkpt>
      <trkpt lat="50.48151" lon="1.84154">
        <ele>79</ele>
        <time>2015-03-31T14:05:08Z</time>
      </trkpt>
      <trkpt lat="50.48151" lon="1.84154">
        <ele>79</ele>
        <time>2015-03-31T14:05:19Z</time>
      </trkpt>
      <trkpt lat="50.48151" lon="1.84154">
        <ele>79</ele>
        <time>2015-03-31T14:05:32Z</time>
      </trkpt>
      <trkpt lat="50.48151" lon="1.84154">
        <ele>79</ele>
        <time>2015-03-31T14:05:46Z</time>
      </trkpt>
      <trkpt lat="50.48151" lon="1.84154">
        <ele>79</ele>
        <time>2015-03-31T14:05:56Z</time>
      </trkpt>
      <trkpt lat="50.48151" lon="1.84154">
        <ele>79</ele>
        <time>2015-03-31T14:06:10Z</time>
      </trkpt>
      <trkpt lat="50.48154" lon="1.84164">
        <ele>78</ele>
        <time>2015-03-31T14:06:14Z</time>
      </trkpt>
      <trkpt lat="50.48177" lon="1.84211">
        <ele>78</ele>
        <time>2015-03-31T14:06:28Z</time>
      </trkpt>
      <trkpt lat="50.48196" lon="1.84256">
        <ele>78</ele>
        <time>2015-03-31T14:06:40Z</time>
      </trkpt>
      <trkpt lat="50.48203" lon="1.84284">
        <ele>80</ele>
        <time>2015-03-31T14:06:46Z</time>
      </trkpt>
      <trkpt lat="50.48222" lon="1.84362">
        <ele>77</ele>
        <time>2015-03-31T14:07:02Z</time>
      </trkpt>
      <trkpt lat="50.4824" lon="1.84439">
        <ele>85</ele>
        <time>2015-03-31T14:07:19Z</time>
      </trkpt>
      <trkpt lat="50.48247" lon="1.8451">
        <ele>83</ele>
        <time>2015-03-31T14:07:35Z</time>
      </trkpt>
      <trkpt lat="50.48254" lon="1.84543">
        <ele>88</ele>
        <time>2015-03-31T14:07:43Z</time>
      </trkpt>
      <trkpt lat="50.48262" lon="1.84591">
        <ele>87</ele>
        <time>2015-03-31T14:07:54Z</time>
      </trkpt>
      <trkpt lat="50.48266" lon="1.84633">
        <ele>86</ele>
        <time>2015-03-31T14:08:03Z</time>
      </trkpt>
      <trkpt lat="50.48269" lon="1.84689">
        <ele>84</ele>
        <time>2015-03-31T14:08:14Z</time>
      </trkpt>
      <trkpt lat="50.48265" lon="1.85011">
        <ele>89</ele>
        <time>2015-03-31T14:09:20Z</time>
      </trkpt>
      <trkpt lat="50.48265" lon="1.85011">
        <ele>92</ele>
        <time>2015-03-31T14:09:41Z</time>
      </trkpt>
      <trkpt lat="50.48265" lon="1.85011">
        <ele>92</ele>
        <time>2015-03-31T14:09:42Z</time>
      </trkpt>
      <trkpt lat="50.48265" lon="1.85011">
        <ele>92</ele>
        <time>2015-03-31T14:09:53Z</time>
      </trkpt>
      <trkpt lat="50.48265" lon="1.85012">
        <ele>92</ele>
        <time>2015-03-31T14:10:13Z</time>
      </trkpt>
      <trkpt lat="50.48265" lon="1.85012">
        <ele>92</ele>
        <time>2015-03-31T14:10:16Z</time>
      </trkpt>
      <trkpt lat="50.48265" lon="1.85012">
        <ele>92</ele>
        <time>2015-03-31T14:10:26Z</time>
      </trkpt>
      <trkpt lat="50.48265" lon="1.85012">
        <ele>92</ele>
        <time>2015-03-31T14:10:39Z</time>
      </trkpt>
      <trkpt lat="50.48265" lon="1.85012">
        <ele>92</ele>
        <time>2015-03-31T14:10:48Z</time>
      </trkpt>
      <trkpt lat="50.48267" lon="1.85007">
        <ele>90</ele>
        <time>2015-03-31T14:11:08Z</time>
      </trkpt>
      <trkpt lat="50.48266" lon="1.85004">
        <ele>89</ele>
        <time>2015-03-31T14:11:15Z</time>
      </trkpt>
      <trkpt lat="50.48267" lon="1.85004">
        <ele>90</ele>
        <time>2015-03-31T14:11:21Z</time>
      </trkpt>
      <trkpt lat="50.48267" lon="1.85004">
        <ele>91</ele>
        <time>2015-03-31T14:11:32Z</time>
      </trkpt>
      <trkpt lat="50.48267" lon="1.85005">
        <ele>90</ele>
        <time>2015-03-31T14:11:53Z</time>
      </trkpt>
      <trkpt lat="50.48267" lon="1.85004">
        <ele>89</ele>
        <time>2015-03-31T14:11:59Z</time>
      </trkpt>
      <trkpt lat="50.48267" lon="1.85004">
        <ele>90</ele>
        <time>2015-03-31T14:12:05Z</time>
      </trkpt>
      <trkpt lat="50.48267" lon="1.85003">
        <ele>90</ele>
        <time>2015-03-31T14:12:16Z</time>
      </trkpt>
      <trkpt lat="50.48268" lon="1.85004">
        <ele>90</ele>
        <time>2015-03-31T14:12:27Z</time>
      </trkpt>
      <trkpt lat="50.48254" lon="1.85007">
        <ele>93</ele>
        <time>2015-03-31T14:12:38Z</time>
      </trkpt>
      <trkpt lat="50.48233" lon="1.84995">
        <ele>91</ele>
        <time>2015-03-31T14:12:49Z</time>
      </trkpt>
      <trkpt lat="50.48215" lon="1.84985">
        <ele>89</ele>
        <time>2015-03-31T14:13:00Z</time>
      </trkpt>
      <trkpt lat="50.48198" lon="1.84977">
        <ele>90</ele>
        <time>2015-03-31T14:13:11Z</time>
      </trkpt>
      <trkpt lat="50.48182" lon="1.84968">
        <ele>95</ele>
        <time>2015-03-31T14:13:22Z</time>
      </trkpt>
      <trkpt lat="50.48162" lon="1.84956">
        <ele>89</ele>
        <time>2015-03-31T14:13:33Z</time>
      </trkpt>
      <trkpt lat="50.48121" lon="1.84935">
        <ele>91</ele>
        <time>2015-03-31T14:13:54Z</time>
      </trkpt>
      <trkpt lat="50.48119" lon="1.84934">
        <ele>91</ele>
        <time>2015-03-31T14:13:55Z</time>
      </trkpt>
      <trkpt lat="50.48097" lon="1.84918">
        <ele>92</ele>
        <time>2015-03-31T14:14:07Z</time>
      </trkpt>
      <trkpt lat="50.48087" lon="1.84911">
        <ele>92</ele>
        <time>2015-03-31T14:14:18Z</time>
      </trkpt>
      <trkpt lat="50.48058" lon="1.84897">
        <ele>93</ele>
        <time>2015-03-31T14:14:28Z</time>
      </trkpt>
      <trkpt lat="50.48027" lon="1.84881">
        <ele>95</ele>
        <time>2015-03-31T14:14:39Z</time>
      </trkpt>
      <trkpt lat="50.47999" lon="1.84867">
        <ele>95</ele>
        <time>2015-03-31T14:14:50Z</time>
      </trkpt>
      <trkpt lat="50.4797" lon="1.84846">
        <ele>92</ele>
        <time>2015-03-31T14:15:01Z</time>
      </trkpt>
      <trkpt lat="50.4792" lon="1.8482">
        <ele>91</ele>
        <time>2015-03-31T14:15:20Z</time>
      </trkpt>
      <trkpt lat="50.47912" lon="1.84814">
        <ele>90</ele>
        <time>2015-03-31T14:15:23Z</time>
      </trkpt>
      <trkpt lat="50.47881" lon="1.84797">
        <ele>91</ele>
        <time>2015-03-31T14:15:34Z</time>
      </trkpt>
      <trkpt lat="50.47826" lon="1.84766">
        <ele>89</ele>
        <time>2015-03-31T14:15:54Z</time>
      </trkpt>
      <trkpt lat="50.47821" lon="1.84764">
        <ele>89</ele>
        <time>2015-03-31T14:15:56Z</time>
      </trkpt>
      <trkpt lat="50.47788" lon="1.84745">
        <ele>86</ele>
        <time>2015-03-31T14:16:07Z</time>
      </trkpt>
      <trkpt lat="50.47743" lon="1.84718">
        <ele>86</ele>
        <time>2015-03-31T14:16:23Z</time>
      </trkpt>
      <trkpt lat="50.47718" lon="1.84705">
        <ele>89</ele>
        <time>2015-03-31T14:16:32Z</time>
      </trkpt>
      <trkpt lat="50.47689" lon="1.8469">
        <ele>88</ele>
        <time>2015-03-31T14:16:43Z</time>
      </trkpt>
      <trkpt lat="50.47661" lon="1.84662">
        <ele>87</ele>
        <time>2015-03-31T14:16:56Z</time>
      </trkpt>
      <trkpt lat="50.47632" lon="1.84626">
        <ele>82</ele>
        <time>2015-03-31T14:17:09Z</time>
      </trkpt>
      <trkpt lat="50.47609" lon="1.846">
        <ele>83</ele>
        <time>2015-03-31T14:17:19Z</time>
      </trkpt>
      <trkpt lat="50.47589" lon="1.84578">
        <ele>83</ele>
        <time>2015-03-31T14:17:28Z</time>
      </trkpt>
      <trkpt lat="50.4757" lon="1.84555">
        <ele>81</ele>
        <time>2015-03-31T14:17:36Z</time>
      </trkpt>
      <trkpt lat="50.47548" lon="1.84526">
        <ele>80</ele>
        <time>2015-03-31T14:17:46Z</time>
      </trkpt>
      <trkpt lat="50.47525" lon="1.84496">
        <ele>81</ele>
        <time>2015-03-31T14:17:57Z</time>
      </trkpt>
      <trkpt lat="50.47495" lon="1.84461">
        <ele>81</ele>
        <time>2015-03-31T14:18:09Z</time>
      </trkpt>
      <trkpt lat="50.47309" lon="1.84242">
        <ele>78</ele>
        <time>2015-03-31T14:19:21Z</time>
      </trkpt>
      <trkpt lat="50.47295" lon="1.84223">
        <ele>77</ele>
        <time>2015-03-31T14:19:28Z</time>
      </trkpt>
      <trkpt lat="50.47268" lon="1.84189">
        <ele>78</ele>
        <time>2015-03-31T14:19:42Z</time>
      </trkpt>
      <trkpt lat="50.47252" lon="1.84171">
        <ele>79</ele>
        <time>2015-03-31T14:19:49Z</time>
      </trkpt>
      <trkpt lat="50.47208" lon="1.84121">
        <ele>82</ele>
        <time>2015-03-31T14:20:07Z</time>
      </trkpt>
      <trkpt lat="50.47192" lon="1.841">
        <ele>82</ele>
        <time>2015-03-31T14:20:14Z</time>
      </trkpt>
      <trkpt lat="50.4718" lon="1.84085">
        <ele>81</ele>
        <time>2015-03-31T14:20:19Z</time>
      </trkpt>
      <trkpt lat="50.47155" lon="1.84056">
        <ele>81</ele>
        <time>2015-03-31T14:20:30Z</time>
      </trkpt>
      <trkpt lat="50.47139" lon="1.84039">
        <ele>79</ele>
        <time>2015-03-31T14:20:42Z</time>
      </trkpt>
      <trkpt lat="50.46766" lon="1.84091">
        <ele>48</ele>
        <time>2015-03-31T14:22:42Z</time>
      </trkpt>
      <trkpt lat="50.46766" lon="1.84091">
        <ele>48</ele>
        <time>2015-03-31T14:23:02Z</time>
      </trkpt>
      <trkpt lat="50.46766" lon="1.84091">
        <ele>48</ele>
        <time>2015-03-31T14:23:06Z</time>
      </trkpt>
      <trkpt lat="50.46766" lon="1.84091">
        <ele>48</ele>
        <time>2015-03-31T14:23:15Z</time>
      </trkpt>
      <trkpt lat="50.46766" lon="1.84091">
        <ele>48</ele>
        <time>2015-03-31T14:23:26Z</time>
      </trkpt>
      <trkpt lat="50.46766" lon="1.84091">
        <ele>48</ele>
        <time>2015-03-31T14:23:37Z</time>
      </trkpt>
      <trkpt lat="50.46766" lon="1.84095">
        <ele>48</ele>
        <time>2015-03-31T14:23:48Z</time>
      </trkpt>
      <trkpt lat="50.46766" lon="1.84095">
        <ele>48</ele>
        <time>2015-03-31T14:23:59Z</time>
      </trkpt>
      <trkpt lat="50.46766" lon="1.84095">
        <ele>48</ele>
        <time>2015-03-31T14:24:20Z</time>
      </trkpt>
      <trkpt lat="50.46766" lon="1.84095">
        <ele>48</ele>
        <time>2015-03-31T14:24:21Z</time>
      </trkpt>
      <trkpt lat="50.46766" lon="1.84095">
        <ele>48</ele>
        <time>2015-03-31T14:24:32Z</time>
      </trkpt>
      <trkpt lat="50.46766" lon="1.84095">
        <ele>48</ele>
        <time>2015-03-31T14:24:45Z</time>
      </trkpt>
      <trkpt lat="50.46761" lon="1.84088">
        <ele>50</ele>
        <time>2015-03-31T14:24:54Z</time>
      </trkpt>
      <trkpt lat="50.46744" lon="1.84062">
        <ele>51</ele>
        <time>2015-03-31T14:25:05Z</time>
      </trkpt>
      <trkpt lat="50.4667" lon="1.83944">
        <ele>50</ele>
        <time>2015-03-31T14:25:36Z</time>
      </trkpt>
      <trkpt lat="50.46581" lon="1.83836">
        <ele>44</ele>
        <time>2015-03-31T14:26:09Z</time>
      </trkpt>
      <trkpt lat="50.46577" lon="1.83835">
        <ele>43</ele>
        <time>2015-03-31T14:26:11Z</time>
      </trkpt>
      <trkpt lat="50.46568" lon="1.83833">
        <ele>38</ele>
        <time>2015-03-31T14:26:26Z</time>
      </trkpt>
      <trkpt lat="50.46568" lon="1.83833">
        <ele>38</ele>
        <time>2015-03-31T14:26:33Z</time>
      </trkpt>
      <trkpt lat="50.46575" lon="1.83783">
        <ele>35</ele>
        <time>2015-03-31T14:26:51Z</time>
      </trkpt>
      <trkpt lat="50.46584" lon="1.83771">
        <ele>32</ele>
        <time>2015-03-31T14:26:55Z</time>
      </trkpt>
      <trkpt lat="50.46611" lon="1.83734">
        <ele>31</ele>
        <time>2015-03-31T14:27:06Z</time>
      </trkpt>
      <trkpt lat="50.46641" lon="1.83687">
        <ele>30</ele>
        <time>2015-03-31T14:27:21Z</time>
      </trkpt>
      <trkpt lat="50.46654" lon="1.83666">
        <ele>28</ele>
        <time>2015-03-31T14:27:28Z</time>
      </trkpt>
      <trkpt lat="50.46667" lon="1.83639">
        <ele>30</ele>
        <time>2015-03-31T14:27:39Z</time>
      </trkpt>
      <trkpt lat="50.46683" lon="1.83612">
        <ele>31</ele>
        <time>2015-03-31T14:27:50Z</time>
      </trkpt>
      <trkpt lat="50.46697" lon="1.83588">
        <ele>33</ele>
        <time>2015-03-31T14:28:01Z</time>
      </trkpt>
      <trkpt lat="50.46711" lon="1.83565">
        <ele>31</ele>
        <time>2015-03-31T14:28:12Z</time>
      </trkpt>
      <trkpt lat="50.46724" lon="1.83541">
        <ele>31</ele>
        <time>2015-03-31T14:28:23Z</time>
      </trkpt>
      <trkpt lat="50.46731" lon="1.83521">
        <ele>31</ele>
        <time>2015-03-31T14:28:35Z</time>
      </trkpt>
      <trkpt lat="50.46731" lon="1.83522">
        <ele>29</ele>
        <time>2015-03-31T14:28:45Z</time>
      </trkpt>
      <trkpt lat="50.46731" lon="1.83522">
        <ele>29</ele>
        <time>2015-03-31T14:29:04Z</time>
      </trkpt>
      <trkpt lat="50.46731" lon="1.83522">
        <ele>29</ele>
        <time>2015-03-31T14:29:07Z</time>
      </trkpt>
      <trkpt lat="50.46731" lon="1.83522">
        <ele>29</ele>
        <time>2015-03-31T14:29:18Z</time>
      </trkpt>
      <trkpt lat="50.46731" lon="1.83522">
        <ele>29</ele>
        <time>2015-03-31T14:29:29Z</time>
      </trkpt>
      <trkpt lat="50.46731" lon="1.83522">
        <ele>28</ele>
        <time>2015-03-31T14:29:43Z</time>
      </trkpt>
      <trkpt lat="50.46732" lon="1.83524">
        <ele>25</ele>
        <time>2015-03-31T14:30:01Z</time>
      </trkpt>
      <trkpt lat="50.46732" lon="1.83525">
        <ele>25</ele>
        <time>2015-03-31T14:30:02Z</time>
      </trkpt>
      <trkpt lat="50.46733" lon="1.83523">
        <ele>25</ele>
        <time>2015-03-31T14:30:13Z</time>
      </trkpt>
      <trkpt lat="50.46734" lon="1.83523">
        <ele>27</ele>
        <time>2015-03-31T14:30:24Z</time>
      </trkpt>
      <trkpt lat="50.46734" lon="1.83523">
        <ele>26</ele>
        <time>2015-03-31T14:30:40Z</time>
      </trkpt>
      <trkpt lat="50.46734" lon="1.83523">
        <ele>26</ele>
        <time>2015-03-31T14:30:48Z</time>
      </trkpt>
      <trkpt lat="50.46734" lon="1.83523">
        <ele>26</ele>
        <time>2015-03-31T14:30:59Z</time>
      </trkpt>
      <trkpt lat="50.46734" lon="1.83523">
        <ele>27</ele>
        <time>2015-03-31T14:31:08Z</time>
      </trkpt>
      <trkpt lat="50.46734" lon="1.83523">
        <ele>27</ele>
        <time>2015-03-31T14:31:23Z</time>
      </trkpt>
      <trkpt lat="50.46734" lon="1.83523">
        <ele>26</ele>
        <time>2015-03-31T14:31:32Z</time>
      </trkpt>
      <trkpt lat="50.46734" lon="1.83523">
        <ele>26</ele>
        <time>2015-03-31T14:31:41Z</time>
      </trkpt>
      <trkpt lat="50.46733" lon="1.83522">
        <ele>27</ele>
        <time>2015-03-31T14:31:52Z</time>
      </trkpt>
      <trkpt lat="50.46733" lon="1.83521">
        <ele>26</ele>
        <time>2015-03-31T14:32:10Z</time>
      </trkpt>
      <trkpt lat="50.46733" lon="1.83521">
        <ele>26</ele>
        <time>2015-03-31T14:32:20Z</time>
      </trkpt>
      <trkpt lat="50.46733" lon="1.83521">
        <ele>26</ele>
        <time>2015-03-31T14:32:25Z</time>
      </trkpt>
      <trkpt lat="50.46733" lon="1.83521">
        <ele>26</ele>
        <time>2015-03-31T14:32:36Z</time>
      </trkpt>
      <trkpt lat="50.46733" lon="1.83521">
        <ele>26</ele>
        <time>2015-03-31T14:32:47Z</time>
      </trkpt>
      <trkpt lat="50.46733" lon="1.83521">
        <ele>26</ele>
        <time>2015-03-31T14:32:58Z</time>
      </trkpt>
      <trkpt lat="50.46733" lon="1.83521">
        <ele>26</ele>
        <time>2015-03-31T14:33:09Z</time>
      </trkpt>
      <trkpt lat="50.46733" lon="1.83521">
        <ele>26</ele>
        <time>2015-03-31T14:33:20Z</time>
      </trkpt>
      <trkpt lat="50.46733" lon="1.83521">
        <ele>26</ele>
        <time>2015-03-31T14:33:35Z</time>
      </trkpt>
      <trkpt lat="50.46734" lon="1.83517">
        <ele>25</ele>
        <time>2015-03-31T14:33:42Z</time>
      </trkpt>
      <trkpt lat="50.46735" lon="1.83513">
        <ele>26</ele>
        <time>2015-03-31T14:33:53Z</time>
      </trkpt>
      <trkpt lat="50.4675" lon="1.83484">
        <ele>25</ele>
        <time>2015-03-31T14:34:08Z</time>
      </trkpt>
      <trkpt lat="50.46756" lon="1.83468">
        <ele>26</ele>
        <time>2015-03-31T14:34:15Z</time>
      </trkpt>
      <trkpt lat="50.4677" lon="1.83435">
        <ele>27</ele>
        <time>2015-03-31T14:34:31Z</time>
      </trkpt>
      <trkpt lat="50.46778" lon="1.83419">
        <ele>27</ele>
        <time>2015-03-31T14:34:39Z</time>
      </trkpt>
      <trkpt lat="50.46784" lon="1.83398">
        <ele>30</ele>
        <time>2015-03-31T14:34:49Z</time>
      </trkpt>
      <trkpt lat="50.46796" lon="1.83379">
        <ele>27</ele>
        <time>2015-03-31T14:34:59Z</time>
      </trkpt>
      <trkpt lat="50.46809" lon="1.83351">
        <ele>29</ele>
        <time>2015-03-31T14:35:12Z</time>
      </trkpt>
      <trkpt lat="50.46816" lon="1.83333">
        <ele>31</ele>
        <time>2015-03-31T14:35:21Z</time>
      </trkpt>
      <trkpt lat="50.46824" lon="1.83305">
        <ele>35</ele>
        <time>2015-03-31T14:35:35Z</time>
      </trkpt>
      <trkpt lat="50.46828" lon="1.83292">
        <ele>31</ele>
        <time>2015-03-31T14:35:43Z</time>
      </trkpt>
      <trkpt lat="50.46839" lon="1.83267">
        <ele>31</ele>
        <time>2015-03-31T14:36:03Z</time>
      </trkpt>
      <trkpt lat="50.46839" lon="1.83265">
        <ele>31</ele>
        <time>2015-03-31T14:36:05Z</time>
      </trkpt>
      <trkpt lat="50.46845" lon="1.83251">
        <ele>28</ele>
        <time>2015-03-31T14:36:16Z</time>
      </trkpt>
      <trkpt lat="50.46847" lon="1.83238">
        <ele>27</ele>
        <time>2015-03-31T14:36:27Z</time>
      </trkpt>
      <trkpt lat="50.46846" lon="1.83216">
        <ele>29</ele>
        <time>2015-03-31T14:36:38Z</time>
      </trkpt>
      <trkpt lat="50.46844" lon="1.83188">
        <ele>35</ele>
        <time>2015-03-31T14:36:49Z</time>
      </trkpt>
      <trkpt lat="50.46844" lon="1.83133">
        <ele>23</ele>
        <time>2015-03-31T14:37:05Z</time>
      </trkpt>
      <trkpt lat="50.46842" lon="1.83115">
        <ele>20</ele>
        <time>2015-03-31T14:37:11Z</time>
      </trkpt>
      <trkpt lat="50.46841" lon="1.8308">
        <ele>23</ele>
        <time>2015-03-31T14:37:22Z</time>
      </trkpt>
      <trkpt lat="50.46843" lon="1.83065">
        <ele>26</ele>
        <time>2015-03-31T14:37:33Z</time>
      </trkpt>
      <trkpt lat="50.46843" lon="1.83063">
        <ele>26</ele>
        <time>2015-03-31T14:37:45Z</time>
      </trkpt>
      <trkpt lat="50.46846" lon="1.8306">
        <ele>28</ele>
        <time>2015-03-31T14:37:55Z</time>
      </trkpt>
      <trkpt lat="50.46846" lon="1.8306">
        <ele>29</ele>
        <time>2015-03-31T14:38:06Z</time>
      </trkpt>
      <trkpt lat="50.46846" lon="1.83048">
        <ele>26</ele>
        <time>2015-03-31T14:38:17Z</time>
      </trkpt>
      <trkpt lat="50.46849" lon="1.83025">
        <ele>27</ele>
        <time>2015-03-31T14:38:28Z</time>
      </trkpt>
      <trkpt lat="50.46857" lon="1.82996">
        <ele>28</ele>
        <time>2015-03-31T14:38:40Z</time>
      </trkpt>
      <trkpt lat="50.46864" lon="1.82989">
        <ele>26</ele>
        <time>2015-03-31T14:38:50Z</time>
      </trkpt>
      <trkpt lat="50.46865" lon="1.82989">
        <ele>28</ele>
        <time>2015-03-31T14:39:01Z</time>
      </trkpt>
      <trkpt lat="50.46861" lon="1.82991">
        <ele>30</ele>
        <time>2015-03-31T14:39:17Z</time>
      </trkpt>
      <trkpt lat="50.46861" lon="1.8299">
        <ele>30</ele>
        <time>2015-03-31T14:39:23Z</time>
      </trkpt>
      <trkpt lat="50.46861" lon="1.8299">
        <ele>30</ele>
        <time>2015-03-31T14:39:34Z</time>
      </trkpt>
      <trkpt lat="50.46861" lon="1.8299">
        <ele>30</ele>
        <time>2015-03-31T14:39:52Z</time>
      </trkpt>
      <trkpt lat="50.46861" lon="1.8299">
        <ele>30</ele>
        <time>2015-03-31T14:39:56Z</time>
      </trkpt>
      <trkpt lat="50.46862" lon="1.82988">
        <ele>29</ele>
        <time>2015-03-31T14:40:07Z</time>
      </trkpt>
      <trkpt lat="50.46867" lon="1.82984">
        <ele>29</ele>
        <time>2015-03-31T14:40:18Z</time>
      </trkpt>
      <trkpt lat="50.46863" lon="1.82984">
        <ele>30</ele>
        <time>2015-03-31T14:40:38Z</time>
      </trkpt>
      <trkpt lat="50.46863" lon="1.82984">
        <ele>30</ele>
        <time>2015-03-31T14:40:40Z</time>
      </trkpt>
      <trkpt lat="50.46863" lon="1.82984">
        <ele>30</ele>
        <time>2015-03-31T14:40:52Z</time>
      </trkpt>
      <trkpt lat="50.46863" lon="1.82984">
        <ele>30</ele>
        <time>2015-03-31T14:41:02Z</time>
      </trkpt>
      <trkpt lat="50.46864" lon="1.82983">
        <ele>29</ele>
        <time>2015-03-31T14:41:12Z</time>
      </trkpt>
      <trkpt lat="50.46864" lon="1.82986">
        <ele>28</ele>
        <time>2015-03-31T14:41:31Z</time>
      </trkpt>
      <trkpt lat="50.46863" lon="1.82987">
        <ele>28</ele>
        <time>2015-03-31T14:41:34Z</time>
      </trkpt>
      <trkpt lat="50.46859" lon="1.8299">
        <ele>29</ele>
        <time>2015-03-31T14:41:46Z</time>
      </trkpt>
      <trkpt lat="50.4686" lon="1.8299">
        <ele>28</ele>
        <time>2015-03-31T14:42:04Z</time>
      </trkpt>
      <trkpt lat="50.46859" lon="1.82989">
        <ele>29</ele>
        <time>2015-03-31T14:42:07Z</time>
      </trkpt>
      <trkpt lat="50.4686" lon="1.82988">
        <ele>30</ele>
        <time>2015-03-31T14:42:18Z</time>
      </trkpt>
      <trkpt lat="50.4686" lon="1.82988">
        <ele>32</ele>
        <time>2015-03-31T14:42:37Z</time>
      </trkpt>
      <trkpt lat="50.4686" lon="1.82988">
        <ele>32</ele>
        <time>2015-03-31T14:42:40Z</time>
      </trkpt>
      <trkpt lat="50.4686" lon="1.82988">
        <ele>32</ele>
        <time>2015-03-31T14:42:51Z</time>
      </trkpt>
      <trkpt lat="50.4686" lon="1.82988">
        <ele>32</ele>
        <time>2015-03-31T14:43:02Z</time>
      </trkpt>
      <trkpt lat="50.46861" lon="1.82989">
        <ele>31</ele>
        <time>2015-03-31T14:43:14Z</time>
      </trkpt>
      <trkpt lat="50.46861" lon="1.82989">
        <ele>31</ele>
        <time>2015-03-31T14:43:24Z</time>
      </trkpt>
      <trkpt lat="50.46856" lon="1.82995">
        <ele>29</ele>
        <time>2015-03-31T14:43:40Z</time>
      </trkpt>
      <trkpt lat="50.46855" lon="1.82996">
        <ele>28</ele>
        <time>2015-03-31T14:43:46Z</time>
      </trkpt>
      <trkpt lat="50.46855" lon="1.82998">
        <ele>26</ele>
        <time>2015-03-31T14:44:06Z</time>
      </trkpt>
      <trkpt lat="50.46856" lon="1.82998">
        <ele>26</ele>
        <time>2015-03-31T14:44:15Z</time>
      </trkpt>
      <trkpt lat="50.46857" lon="1.82998">
        <ele>26</ele>
        <time>2015-03-31T14:44:20Z</time>
      </trkpt>
      <trkpt lat="50.46859" lon="1.82996">
        <ele>28</ele>
        <time>2015-03-31T14:44:38Z</time>
      </trkpt>
      <trkpt lat="50.46859" lon="1.82994">
        <ele>29</ele>
        <time>2015-03-31T14:44:41Z</time>
      </trkpt>
      <trkpt lat="50.46857" lon="1.82994">
        <ele>25</ele>
        <time>2015-03-31T14:44:52Z</time>
      </trkpt>
      <trkpt lat="50.46861" lon="1.82987">
        <ele>32</ele>
        <time>2015-03-31T14:45:12Z</time>
      </trkpt>
      <trkpt lat="50.46862" lon="1.82987">
        <ele>32</ele>
        <time>2015-03-31T14:45:14Z</time>
      </trkpt>
      <trkpt lat="50.46863" lon="1.82984">
        <ele>33</ele>
        <time>2015-03-31T14:45:25Z</time>
      </trkpt>
      <trkpt lat="50.46865" lon="1.82979">
        <ele>35</ele>
        <time>2015-03-31T14:45:37Z</time>
      </trkpt>
      <trkpt lat="50.46867" lon="1.82972">
        <ele>35</ele>
        <time>2015-03-31T14:45:47Z</time>
      </trkpt>
      <trkpt lat="50.46878" lon="1.82946">
        <ele>35</ele>
        <time>2015-03-31T14:46:04Z</time>
      </trkpt>
      <trkpt lat="50.4688" lon="1.82937">
        <ele>33</ele>
        <time>2015-03-31T14:46:09Z</time>
      </trkpt>
      <trkpt lat="50.4689" lon="1.82912">
        <ele>30</ele>
        <time>2015-03-31T14:46:20Z</time>
      </trkpt>
      <trkpt lat="50.46901" lon="1.82864">
        <ele>25</ele>
        <time>2015-03-31T14:46:36Z</time>
      </trkpt>
      <trkpt lat="50.46902" lon="1.82848">
        <ele>25</ele>
        <time>2015-03-31T14:46:43Z</time>
      </trkpt>
      <trkpt lat="50.46912" lon="1.82827">
        <ele>26</ele>
        <time>2015-03-31T14:46:55Z</time>
      </trkpt>
      <trkpt lat="50.4692" lon="1.82812">
        <ele>27</ele>
        <time>2015-03-31T14:47:05Z</time>
      </trkpt>
      <trkpt lat="50.46925" lon="1.82797">
        <ele>27</ele>
        <time>2015-03-31T14:47:15Z</time>
      </trkpt>
      <trkpt lat="50.46931" lon="1.82781">
        <ele>28</ele>
        <time>2015-03-31T14:47:26Z</time>
      </trkpt>
      <trkpt lat="50.46938" lon="1.82763">
        <ele>29</ele>
        <time>2015-03-31T14:47:37Z</time>
      </trkpt>
      <trkpt lat="50.46945" lon="1.82745">
        <ele>32</ele>
        <time>2015-03-31T14:47:48Z</time>
      </trkpt>
      <trkpt lat="50.46953" lon="1.82724">
        <ele>33</ele>
        <time>2015-03-31T14:48:00Z</time>
      </trkpt>
      <trkpt lat="50.4696" lon="1.82707">
        <ele>34</ele>
        <time>2015-03-31T14:48:10Z</time>
      </trkpt>
      <trkpt lat="50.46965" lon="1.82688">
        <ele>34</ele>
        <time>2015-03-31T14:48:21Z</time>
      </trkpt>
      <trkpt lat="50.4697" lon="1.82668">
        <ele>36</ele>
        <time>2015-03-31T14:48:32Z</time>
      </trkpt>
      <trkpt lat="50.46974" lon="1.8265">
        <ele>35</ele>
        <time>2015-03-31T14:48:44Z</time>
      </trkpt>
      <trkpt lat="50.46978" lon="1.82622">
        <ele>37</ele>
        <time>2015-03-31T14:49:02Z</time>
      </trkpt>
      <trkpt lat="50.46981" lon="1.82612">
        <ele>38</ele>
        <time>2015-03-31T14:49:10Z</time>
      </trkpt>
      <trkpt lat="50.46983" lon="1.826">
        <ele>38</ele>
        <time>2015-03-31T14:49:18Z</time>
      </trkpt>
      <trkpt lat="50.46987" lon="1.82585">
        <ele>37</ele>
        <time>2015-03-31T14:49:27Z</time>
      </trkpt>
      <trkpt lat="50.4699" lon="1.82568">
        <ele>38</ele>
        <time>2015-03-31T14:49:38Z</time>
      </trkpt>
      <trkpt lat="50.46992" lon="1.8255">
        <ele>39</ele>
        <time>2015-03-31T14:49:49Z</time>
      </trkpt>
      <trkpt lat="50.46995" lon="1.8253">
        <ele>43</ele>
        <time>2015-03-31T14:50:00Z</time>
      </trkpt>
      <trkpt lat="50.46999" lon="1.82512">
        <ele>45</ele>
        <time>2015-03-31T14:50:11Z</time>
      </trkpt>
      <trkpt lat="50.47002" lon="1.825">
        <ele>43</ele>
        <time>2015-03-31T14:50:22Z</time>
      </trkpt>
      <trkpt lat="50.47006" lon="1.82485">
        <ele>47</ele>
        <time>2015-03-31T14:50:33Z</time>
      </trkpt>
      <trkpt lat="50.47011" lon="1.82471">
        <ele>47</ele>
        <time>2015-03-31T14:50:44Z</time>
      </trkpt>
      <trkpt lat="50.47016" lon="1.82461">
        <ele>47</ele>
        <time>2015-03-31T14:50:55Z</time>
      </trkpt>
      <trkpt lat="50.47021" lon="1.82449">
        <ele>45</ele>
        <time>2015-03-31T14:51:06Z</time>
      </trkpt>
      <trkpt lat="50.47029" lon="1.82439">
        <ele>45</ele>
        <time>2015-03-31T14:51:18Z</time>
      </trkpt>
      <trkpt lat="50.47032" lon="1.82431">
        <ele>49</ele>
        <time>2015-03-31T14:51:28Z</time>
      </trkpt>
      <trkpt lat="50.47036" lon="1.82421">
        <ele>49</ele>
        <time>2015-03-31T14:51:39Z</time>
      </trkpt>
      <trkpt lat="50.47042" lon="1.82411">
        <ele>51</ele>
        <time>2015-03-31T14:51:50Z</time>
      </trkpt>
      <trkpt lat="50.47048" lon="1.82401">
        <ele>52</ele>
        <time>2015-03-31T14:52:01Z</time>
      </trkpt>
      <trkpt lat="50.47056" lon="1.82395">
        <ele>53</ele>
        <time>2015-03-31T14:52:12Z</time>
      </trkpt>
      <trkpt lat="50.47062" lon="1.82388">
        <ele>56</ele>
        <time>2015-03-31T14:52:23Z</time>
      </trkpt>
      <trkpt lat="50.47068" lon="1.8238">
        <ele>58</ele>
        <time>2015-03-31T14:52:34Z</time>
      </trkpt>
      <trkpt lat="50.47073" lon="1.8237">
        <ele>57</ele>
        <time>2015-03-31T14:52:45Z</time>
      </trkpt>
      <trkpt lat="50.47081" lon="1.82358">
        <ele>58</ele>
        <time>2015-03-31T14:52:56Z</time>
      </trkpt>
      <trkpt lat="50.47086" lon="1.82345">
        <ele>59</ele>
        <time>2015-03-31T14:53:07Z</time>
      </trkpt>
      <trkpt lat="50.47092" lon="1.82328">
        <ele>60</ele>
        <time>2015-03-31T14:53:18Z</time>
      </trkpt>
      <trkpt lat="50.47096" lon="1.82311">
        <ele>60</ele>
        <time>2015-03-31T14:53:29Z</time>
      </trkpt>
      <trkpt lat="50.47097" lon="1.82289">
        <ele>65</ele>
        <time>2015-03-31T14:53:44Z</time>
      </trkpt>
      <trkpt lat="50.47095" lon="1.82279">
        <ele>65</ele>
        <time>2015-03-31T14:53:52Z</time>
      </trkpt>
      <trkpt lat="50.47091" lon="1.82264">
        <ele>66</ele>
        <time>2015-03-31T14:54:02Z</time>
      </trkpt>
      <trkpt lat="50.47086" lon="1.82249">
        <ele>68</ele>
        <time>2015-03-31T14:54:13Z</time>
      </trkpt>
      <trkpt lat="50.47079" lon="1.82226">
        <ele>71</ele>
        <time>2015-03-31T14:54:30Z</time>
      </trkpt>
      <trkpt lat="50.47075" lon="1.82212">
        <ele>72</ele>
        <time>2015-03-31T14:54:39Z</time>
      </trkpt>
      <trkpt lat="50.47074" lon="1.82202">
        <ele>72</ele>
        <time>2015-03-31T14:54:46Z</time>
      </trkpt>
      <trkpt lat="50.4707" lon="1.82185">
        <ele>73</ele>
        <time>2015-03-31T14:54:57Z</time>
      </trkpt>
      <trkpt lat="50.47066" lon="1.82169">
        <ele>73</ele>
        <time>2015-03-31T14:55:08Z</time>
      </trkpt>
      <trkpt lat="50.47059" lon="1.82151">
        <ele>75</ele>
        <time>2015-03-31T14:55:22Z</time>
      </trkpt>
      <trkpt lat="50.47056" lon="1.82138">
        <ele>74</ele>
        <time>2015-03-31T14:55:30Z</time>
      </trkpt>
      <trkpt lat="50.47054" lon="1.82121">
        <ele>73</ele>
        <time>2015-03-31T14:55:41Z</time>
      </trkpt>
      <trkpt lat="50.47053" lon="1.82114">
        <ele>75</ele>
        <time>2015-03-31T14:55:52Z</time>
      </trkpt>
      <trkpt lat="50.47048" lon="1.82091">
        <ele>75</ele>
        <time>2015-03-31T14:56:03Z</time>
      </trkpt>
      <trkpt lat="50.47043" lon="1.82071">
        <ele>76</ele>
        <time>2015-03-31T14:56:14Z</time>
      </trkpt>
      <trkpt lat="50.47038" lon="1.82049">
        <ele>77</ele>
        <time>2015-03-31T14:56:25Z</time>
      </trkpt>
      <trkpt lat="50.47032" lon="1.82028">
        <ele>78</ele>
        <time>2015-03-31T14:56:36Z</time>
      </trkpt>
      <trkpt lat="50.47027" lon="1.82007">
        <ele>78</ele>
        <time>2015-03-31T14:56:47Z</time>
      </trkpt>
      <trkpt lat="50.47021" lon="1.81986">
        <ele>79</ele>
        <time>2015-03-31T14:56:58Z</time>
      </trkpt>
      <trkpt lat="50.47016" lon="1.81963">
        <ele>79</ele>
        <time>2015-03-31T14:57:09Z</time>
      </trkpt>
      <trkpt lat="50.47009" lon="1.8194">
        <ele>78</ele>
        <time>2015-03-31T14:57:20Z</time>
      </trkpt>
      <trkpt lat="50.47003" lon="1.81914">
        <ele>79</ele>
        <time>2015-03-31T14:57:31Z</time>
      </trkpt>
      <trkpt lat="50.47008" lon="1.81893">
        <ele>77</ele>
        <time>2015-03-31T14:57:42Z</time>
      </trkpt>
      <trkpt lat="50.47021" lon="1.81875">
        <ele>77</ele>
        <time>2015-03-31T14:57:53Z</time>
      </trkpt>
      <trkpt lat="50.47038" lon="1.81852">
        <ele>80</ele>
        <time>2015-03-31T14:58:04Z</time>
      </trkpt>
      <trkpt lat="50.47057" lon="1.81827">
        <ele>79</ele>
        <time>2015-03-31T14:58:15Z</time>
      </trkpt>
      <trkpt lat="50.47074" lon="1.81803">
        <ele>78</ele>
        <time>2015-03-31T14:58:26Z</time>
      </trkpt>
      <trkpt lat="50.47092" lon="1.8178">
        <ele>78</ele>
        <time>2015-03-31T14:58:37Z</time>
      </trkpt>
      <trkpt lat="50.47109" lon="1.81759">
        <ele>79</ele>
        <time>2015-03-31T14:58:48Z</time>
      </trkpt>
      <trkpt lat="50.47129" lon="1.81732">
        <ele>78</ele>
        <time>2015-03-31T14:58:59Z</time>
      </trkpt>
      <trkpt lat="50.4715" lon="1.81706">
        <ele>77</ele>
        <time>2015-03-31T14:59:10Z</time>
      </trkpt>
      <trkpt lat="50.4717" lon="1.81681">
        <ele>77</ele>
        <time>2015-03-31T14:59:21Z</time>
      </trkpt>
      <trkpt lat="50.47189" lon="1.81651">
        <ele>77</ele>
        <time>2015-03-31T14:59:32Z</time>
      </trkpt>
      <trkpt lat="50.47211" lon="1.81621">
        <ele>77</ele>
        <time>2015-03-31T14:59:43Z</time>
      </trkpt>
      <trkpt lat="50.47231" lon="1.81595">
        <ele>78</ele>
        <time>2015-03-31T14:59:54Z</time>
      </trkpt>
      <trkpt lat="50.47251" lon="1.81568">
        <ele>79</ele>
        <time>2015-03-31T15:00:05Z</time>
      </trkpt>
      <trkpt lat="50.47271" lon="1.81541">
        <ele>79</ele>
        <time>2015-03-31T15:00:16Z</time>
      </trkpt>
      <trkpt lat="50.47309" lon="1.81496">
        <ele>80</ele>
        <time>2015-03-31T15:00:36Z</time>
      </trkpt>
      <trkpt lat="50.47312" lon="1.81492">
        <ele>80</ele>
        <time>2015-03-31T15:00:38Z</time>
      </trkpt>
      <trkpt lat="50.47325" lon="1.81465">
        <ele>79</ele>
        <time>2015-03-31T15:00:49Z</time>
      </trkpt>
      <trkpt lat="50.47326" lon="1.81454">
        <ele>78</ele>
        <time>2015-03-31T15:01:00Z</time>
      </trkpt>
      <trkpt lat="50.47326" lon="1.81456">
        <ele>79</ele>
        <time>2015-03-31T15:01:11Z</time>
      </trkpt>
      <trkpt lat="50.47326" lon="1.81455">
        <ele>79</ele>
        <time>2015-03-31T15:01:22Z</time>
      </trkpt>
      <trkpt lat="50.47326" lon="1.81455">
        <ele>79</ele>
        <time>2015-03-31T15:01:33Z</time>
      </trkpt>
      <trkpt lat="50.47326" lon="1.81456">
        <ele>79</ele>
        <time>2015-03-31T15:01:44Z</time>
      </trkpt>
      <trkpt lat="50.47326" lon="1.81456">
        <ele>79</ele>
        <time>2015-03-31T15:01:55Z</time>
      </trkpt>
      <trkpt lat="50.47326" lon="1.81456">
        <ele>79</ele>
        <time>2015-03-31T15:02:06Z</time>
      </trkpt>
      <trkpt lat="50.47326" lon="1.81456">
        <ele>79</ele>
        <time>2015-03-31T15:02:17Z</time>
      </trkpt>
      <trkpt lat="50.47326" lon="1.81456">
        <ele>79</ele>
        <time>2015-03-31T15:02:28Z</time>
      </trkpt>
      <trkpt lat="50.47325" lon="1.81452">
        <ele>79</ele>
        <time>2015-03-31T15:02:39Z</time>
      </trkpt>
      <trkpt lat="50.47313" lon="1.81429">
        <ele>77</ele>
        <time>2015-03-31T15:02:50Z</time>
      </trkpt>
      <trkpt lat="50.47295" lon="1.81395">
        <ele>78</ele>
        <time>2015-03-31T15:03:01Z</time>
      </trkpt>
      <trkpt lat="50.47263" lon="1.81344">
        <ele>76</ele>
        <time>2015-03-31T15:03:18Z</time>
      </trkpt>
      <trkpt lat="50.47255" lon="1.8133">
        <ele>77</ele>
        <time>2015-03-31T15:03:23Z</time>
      </trkpt>
      <trkpt lat="50.47235" lon="1.81293">
        <ele>77</ele>
        <time>2015-03-31T15:03:34Z</time>
      </trkpt>
      <trkpt lat="50.47211" lon="1.81257">
        <ele>76</ele>
        <time>2015-03-31T15:03:45Z</time>
      </trkpt>
      <trkpt lat="50.4719" lon="1.8122">
        <ele>77</ele>
        <time>2015-03-31T15:03:56Z</time>
      </trkpt>
      <trkpt lat="50.47155" lon="1.81161">
        <ele>74</ele>
        <time>2015-03-31T15:04:11Z</time>
      </trkpt>
      <trkpt lat="50.47119" lon="1.81095">
        <ele>74</ele>
        <time>2015-03-31T15:04:30Z</time>
      </trkpt>
      <trkpt lat="50.47095" lon="1.81119">
        <ele>74</ele>
        <time>2015-03-31T15:04:40Z</time>
      </trkpt>
      <trkpt lat="50.46386" lon="1.81012">
        <ele>13</ele>
        <time>2015-03-31T15:08:13Z</time>
      </trkpt>
      <trkpt lat="50.46386" lon="1.81012">
        <ele>13</ele>
        <time>2015-03-31T15:08:20Z</time>
      </trkpt>
      <trkpt lat="50.46386" lon="1.81012">
        <ele>13</ele>
        <time>2015-03-31T15:08:36Z</time>
      </trkpt>
      <trkpt lat="50.46386" lon="1.81012">
        <ele>13</ele>
        <time>2015-03-31T15:08:48Z</time>
      </trkpt>
      <trkpt lat="50.46386" lon="1.81012">
        <ele>13</ele>
        <time>2015-03-31T15:08:53Z</time>
      </trkpt>
      <trkpt lat="50.46385" lon="1.81012">
        <ele>10</ele>
        <time>2015-03-31T15:09:04Z</time>
      </trkpt>
      <trkpt lat="50.46385" lon="1.81012">
        <ele>10</ele>
        <time>2015-03-31T15:09:15Z</time>
      </trkpt>
      <trkpt lat="50.46385" lon="1.81012">
        <ele>11</ele>
        <time>2015-03-31T15:09:29Z</time>
      </trkpt>
      <trkpt lat="50.46385" lon="1.81012">
        <ele>11</ele>
        <time>2015-03-31T15:09:38Z</time>
      </trkpt>
      <trkpt lat="50.46383" lon="1.81032">
        <ele>14</ele>
        <time>2015-03-31T15:09:48Z</time>
      </trkpt>
      <trkpt lat="50.46368" lon="1.81083">
        <ele>10</ele>
        <time>2015-03-31T15:10:00Z</time>
      </trkpt>
      <trkpt lat="50.46288" lon="1.81318">
        <ele>13</ele>
        <time>2015-03-31T15:10:51Z</time>
      </trkpt>
      <trkpt lat="50.46231" lon="1.81302">
        <ele>4</ele>
        <time>2015-03-31T15:11:16Z</time>
      </trkpt>
      <trkpt lat="50.462" lon="1.81299">
        <ele>6.2</ele>
        <time>2015-03-31T15:11:30Z</time>
      </trkpt>
      <trkpt lat="50.46155" lon="1.81295">
        <ele>4</ele>
        <time>2015-03-31T15:11:48Z</time>
      </trkpt>
      <trkpt lat="50.46138" lon="1.81287">
        <ele>4</ele>
        <time>2015-03-31T15:11:56Z</time>
      </trkpt>
      <trkpt lat="50.46102" lon="1.81278">
        <ele>2</ele>
        <time>2015-03-31T15:12:08Z</time>
      </trkpt>
      <trkpt lat="50.46094" lon="1.81271">
        <ele>1</ele>
        <time>2015-03-31T15:12:11Z</time>
      </trkpt>
      <trkpt lat="50.46063" lon="1.81249">
        <ele>2</ele>
        <time>2015-03-31T15:12:22Z</time>
      </trkpt>
      <trkpt lat="50.46037" lon="1.81223">
        <ele>5</ele>
        <time>2015-03-31T15:12:33Z</time>
      </trkpt>
      <trkpt lat="50.46009" lon="1.81203">
        <ele>-1</ele>
        <time>2015-03-31T15:12:44Z</time>
      </trkpt>
      <trkpt lat="50.45985" lon="1.81184">
        <ele>9</ele>
        <time>2015-03-31T15:12:55Z</time>
      </trkpt>
      <trkpt lat="50.45944" lon="1.81157">
        <ele>20</ele>
        <time>2015-03-31T15:13:10Z</time>
      </trkpt>
      <trkpt lat="50.45904" lon="1.81137">
        <ele>27</ele>
        <time>2015-03-31T15:13:24Z</time>
      </trkpt>
      <trkpt lat="50.45873" lon="1.81097">
        <ele>16</ele>
        <time>2015-03-31T15:13:37Z</time>
      </trkpt>
      <trkpt lat="50.45868" lon="1.81094">
        <ele>17</ele>
        <time>2015-03-31T15:13:39Z</time>
      </trkpt>
      <trkpt lat="50.45844" lon="1.81069">
        <ele>11</ele>
        <time>2015-03-31T15:13:50Z</time>
      </trkpt>
      <trkpt lat="50.45886" lon="1.81021">
        <ele>6</ele>
        <time>2015-03-31T15:14:07Z</time>
      </trkpt>
      <trkpt lat="50.45895" lon="1.80998">
        <ele>4</ele>
        <time>2015-03-31T15:14:13Z</time>
      </trkpt>
      <trkpt lat="50.45908" lon="1.80916">
        <ele>11</ele>
        <time>2015-03-31T15:14:31Z</time>
      </trkpt>
      <trkpt lat="50.45922" lon="1.80846">
        <ele>6</ele>
        <time>2015-03-31T15:14:45Z</time>
      </trkpt>
      <trkpt lat="50.45936" lon="1.8077">
        <ele>4</ele>
        <time>2015-03-31T15:15:01Z</time>
      </trkpt>
      <trkpt lat="50.45943" lon="1.80741">
        <ele>4</ele>
        <time>2015-03-31T15:15:07Z</time>
      </trkpt>
      <trkpt lat="50.45954" lon="1.80676">
        <ele>7</ele>
        <time>2015-03-31T15:15:20Z</time>
      </trkpt>
      <trkpt lat="50.45962" lon="1.80637">
        <ele>5</ele>
        <time>2015-03-31T15:15:29Z</time>
      </trkpt>
      <trkpt lat="50.45971" lon="1.8059">
        <ele>1</ele>
        <time>2015-03-31T15:15:40Z</time>
      </trkpt>
      <trkpt lat="50.45976" lon="1.80541">
        <ele>-3</ele>
        <time>2015-03-31T15:15:52Z</time>
      </trkpt>
      <trkpt lat="50.45986" lon="1.80491">
        <ele>-2</ele>
        <time>2015-03-31T15:16:02Z</time>
      </trkpt>
      <trkpt lat="50.45995" lon="1.80447">
        <ele>4</ele>
        <time>2015-03-31T15:16:13Z</time>
      </trkpt>
      <trkpt lat="50.46004" lon="1.80401">
        <ele>5</ele>
        <time>2015-03-31T15:16:24Z</time>
      </trkpt>
      <trkpt lat="50.46009" lon="1.80367">
        <ele>7</ele>
        <time>2015-03-31T15:16:35Z</time>
      </trkpt>
      <trkpt lat="50.46015" lon="1.80306">
        <ele>8</ele>
        <time>2015-03-31T15:16:48Z</time>
      </trkpt>
      <trkpt lat="50.46027" lon="1.80246">
        <ele>2</ele>
        <time>2015-03-31T15:17:01Z</time>
      </trkpt>
      <trkpt lat="50.46034" lon="1.80214">
        <ele>1</ele>
        <time>2015-03-31T15:17:08Z</time>
      </trkpt>
      <trkpt lat="50.46048" lon="1.80139">
        <ele>6</ele>
        <time>2015-03-31T15:17:28Z</time>
      </trkpt>
      <trkpt lat="50.4605" lon="1.80131">
        <ele>6</ele>
        <time>2015-03-31T15:17:30Z</time>
      </trkpt>
      <trkpt lat="50.46069" lon="1.80037">
        <ele>8</ele>
        <time>2015-03-31T15:17:51Z</time>
      </trkpt>
      <trkpt lat="50.46076" lon="1.79996">
        <ele>6</ele>
        <time>2015-03-31T15:18:00Z</time>
      </trkpt>
      <trkpt lat="50.4608" lon="1.79957">
        <ele>7</ele>
        <time>2015-03-31T15:18:08Z</time>
      </trkpt>
      <trkpt lat="50.46083" lon="1.7993">
        <ele>5</ele>
        <time>2015-03-31T15:18:14Z</time>
      </trkpt>
      <trkpt lat="50.46099" lon="1.79848">
        <ele>6</ele>
        <time>2015-03-31T15:18:31Z</time>
      </trkpt>
      <trkpt lat="50.46102" lon="1.79826">
        <ele>6.3</ele>
        <time>2015-03-31T15:18:37Z</time>
      </trkpt>
      <trkpt lat="50.46102" lon="1.79792">
        <ele>6</ele>
        <time>2015-03-31T15:18:48Z</time>
      </trkpt>
      <trkpt lat="50.461" lon="1.79789">
        <ele>1</ele>
        <time>2015-03-31T15:18:58Z</time>
      </trkpt>
      <trkpt lat="50.46085" lon="1.798">
        <ele>6</ele>
        <time>2015-03-31T15:19:16Z</time>
      </trkpt>
      <trkpt lat="50.46072" lon="1.79805">
        <ele>10</ele>
        <time>2015-03-31T15:19:23Z</time>
      </trkpt>
      <trkpt lat="50.46058" lon="1.79808">
        <ele>13</ele>
        <time>2015-03-31T15:19:31Z</time>
      </trkpt>
      <trkpt lat="50.46022" lon="1.79813">
        <ele>7</ele>
        <time>2015-03-31T15:19:49Z</time>
      </trkpt>
      <trkpt lat="50.46014" lon="1.79814">
        <ele>6</ele>
        <time>2015-03-31T15:19:54Z</time>
      </trkpt>
      <trkpt lat="50.46" lon="1.79812">
        <ele>11</ele>
        <time>2015-03-31T15:20:04Z</time>
      </trkpt>
      <trkpt lat="50.45987" lon="1.79799">
        <ele>7</ele>
        <time>2015-03-31T15:20:15Z</time>
      </trkpt>
      <trkpt lat="50.45958" lon="1.7977">
        <ele>9</ele>
        <time>2015-03-31T15:20:33Z</time>
      </trkpt>
      <trkpt lat="50.45955" lon="1.79754">
        <ele>1</ele>
        <time>2015-03-31T15:20:47Z</time>
      </trkpt>
      <trkpt lat="50.45955" lon="1.79752">
        <ele>1</ele>
        <time>2015-03-31T15:20:51Z</time>
      </trkpt>
      <trkpt lat="50.45954" lon="1.79752">
        <ele>1</ele>
        <time>2015-03-31T15:20:59Z</time>
      </trkpt>
      <trkpt lat="50.45954" lon="1.79752">
        <ele>1</ele>
        <time>2015-03-31T15:21:10Z</time>
      </trkpt>
      <trkpt lat="50.45954" lon="1.79753">
        <ele>7</ele>
        <time>2015-03-31T15:21:30Z</time>
      </trkpt>
      <trkpt lat="50.45954" lon="1.79753">
        <ele>7</ele>
        <time>2015-03-31T15:21:32Z</time>
      </trkpt>
      <trkpt lat="50.45954" lon="1.79753">
        <ele>-1</ele>
        <time>2015-03-31T15:21:43Z</time>
      </trkpt>
      <trkpt lat="50.45955" lon="1.79751">
        <ele>-1</ele>
        <time>2015-03-31T15:21:55Z</time>
      </trkpt>
      <trkpt lat="50.45956" lon="1.7975">
        <ele>7</ele>
        <time>2015-03-31T15:22:05Z</time>
      </trkpt>
      <trkpt lat="50.45956" lon="1.7975">
        <ele>7</ele>
        <time>2015-03-31T15:22:17Z</time>
      </trkpt>
      <trkpt lat="50.45956" lon="1.7975">
        <ele>7</ele>
        <time>2015-03-31T15:22:27Z</time>
      </trkpt>
      <trkpt lat="50.45956" lon="1.7975">
        <ele>7</ele>
        <time>2015-03-31T15:22:45Z</time>
      </trkpt>
      <trkpt lat="50.45956" lon="1.7975">
        <ele>7</ele>
        <time>2015-03-31T15:22:49Z</time>
      </trkpt>
      <trkpt lat="50.45956" lon="1.7975">
        <ele>7</ele>
        <time>2015-03-31T15:23:01Z</time>
      </trkpt>
      <trkpt lat="50.45956" lon="1.7975">
        <ele>7</ele>
        <time>2015-03-31T15:23:18Z</time>
      </trkpt>
      <trkpt lat="50.45956" lon="1.7975">
        <ele>7</ele>
        <time>2015-03-31T15:23:23Z</time>
      </trkpt>
      <trkpt lat="50.45956" lon="1.7975">
        <ele>7</ele>
        <time>2015-03-31T15:23:33Z</time>
      </trkpt>
      <trkpt lat="50.45956" lon="1.7975">
        <ele>7</ele>
        <time>2015-03-31T15:23:44Z</time>
      </trkpt>
      <trkpt lat="50.45956" lon="1.7975">
        <ele>7</ele>
        <time>2015-03-31T15:23:55Z</time>
      </trkpt>
      <trkpt lat="50.45956" lon="1.79749">
        <ele>7</ele>
        <time>2015-03-31T15:24:16Z</time>
      </trkpt>
      <trkpt lat="50.45956" lon="1.79749">
        <ele>7</ele>
        <time>2015-03-31T15:24:17Z</time>
      </trkpt>
      <trkpt lat="50.45956" lon="1.79749">
        <ele>7</ele>
        <time>2015-03-31T15:24:28Z</time>
      </trkpt>
      <trkpt lat="50.45956" lon="1.79749">
        <ele>7</ele>
        <time>2015-03-31T15:24:39Z</time>
      </trkpt>
      <trkpt lat="50.45956" lon="1.79749">
        <ele>7</ele>
        <time>2015-03-31T15:24:50Z</time>
      </trkpt>
      <trkpt lat="50.45956" lon="1.79749">
        <ele>1</ele>
        <time>2015-03-31T15:25:01Z</time>
      </trkpt>
      <trkpt lat="50.45956" lon="1.79749">
        <ele>1</ele>
        <time>2015-03-31T15:25:12Z</time>
      </trkpt>
      <trkpt lat="50.45956" lon="1.79749">
        <ele>1</ele>
        <time>2015-03-31T15:25:23Z</time>
      </trkpt>
      <trkpt lat="50.45956" lon="1.79749">
        <ele>1</ele>
        <time>2015-03-31T15:25:34Z</time>
      </trkpt>
      <trkpt lat="50.45956" lon="1.79749">
        <ele>1</ele>
        <time>2015-03-31T15:25:45Z</time>
      </trkpt>
      <trkpt lat="50.45956" lon="1.79749">
        <ele>1</ele>
        <time>2015-03-31T15:26:02Z</time>
      </trkpt>
      <trkpt lat="50.45956" lon="1.79748">
        <ele>1</ele>
        <time>2015-03-31T15:26:09Z</time>
      </trkpt>
      <trkpt lat="50.45956" lon="1.79748">
        <ele>1</ele>
        <time>2015-03-31T15:26:22Z</time>
      </trkpt>
      <trkpt lat="50.45956" lon="1.79748">
        <ele>1</ele>
        <time>2015-03-31T15:26:29Z</time>
      </trkpt>
      <trkpt lat="50.45956" lon="1.79748">
        <ele>1</ele>
        <time>2015-03-31T15:26:40Z</time>
      </trkpt>
      <trkpt lat="50.45956" lon="1.79748">
        <ele>1</ele>
        <time>2015-03-31T15:26:52Z</time>
      </trkpt>
      <trkpt lat="50.45956" lon="1.79739">
        <ele>1</ele>
        <time>2015-03-31T15:27:04Z</time>
      </trkpt>
      <trkpt lat="50.45958" lon="1.79719">
        <ele>2</ele>
        <time>2015-03-31T15:27:13Z</time>
      </trkpt>
      <trkpt lat="50.45967" lon="1.7967">
        <ele>3</ele>
        <time>2015-03-31T15:27:32Z</time>
      </trkpt>
      <trkpt lat="50.45966" lon="1.79665">
        <ele>3</ele>
        <time>2015-03-31T15:27:35Z</time>
      </trkpt>
      <trkpt lat="50.45969" lon="1.79633">
        <ele>4</ele>
        <time>2015-03-31T15:27:49Z</time>
      </trkpt>
      <trkpt lat="50.45972" lon="1.79615">
        <ele>2</ele>
        <time>2015-03-31T15:27:57Z</time>
      </trkpt>
      <trkpt lat="50.45977" lon="1.79588">
        <ele>6</ele>
        <time>2015-03-31T15:28:08Z</time>
      </trkpt>
      <trkpt lat="50.45985" lon="1.79558">
        <ele>6</ele>
        <time>2015-03-31T15:28:19Z</time>
      </trkpt>
      <trkpt lat="50.45989" lon="1.79527">
        <ele>5</ele>
        <time>2015-03-31T15:28:30Z</time>
      </trkpt>
      <trkpt lat="50.45993" lon="1.79496">
        <ele>5</ele>
        <time>2015-03-31T15:28:41Z</time>
      </trkpt>
      <trkpt lat="50.46004" lon="1.79437">
        <ele>4</ele>
        <time>2015-03-31T15:29:01Z</time>
      </trkpt>
      <trkpt lat="50.46006" lon="1.79427">
        <ele>2</ele>
        <time>2015-03-31T15:29:04Z</time>
      </trkpt>
      <trkpt lat="50.4601" lon="1.79397">
        <ele>10</ele>
        <time>2015-03-31T15:29:14Z</time>
      </trkpt>
      <trkpt lat="50.46023" lon="1.79346">
        <ele>9</ele>
        <time>2015-03-31T15:29:28Z</time>
      </trkpt>
      <trkpt lat="50.46029" lon="1.79312">
        <ele>9</ele>
        <time>2015-03-31T15:29:37Z</time>
      </trkpt>
      <trkpt lat="50.4603" lon="1.79279">
        <ele>12</ele>
        <time>2015-03-31T15:29:47Z</time>
      </trkpt>
      <trkpt lat="50.4603" lon="1.7924">
        <ele>19</ele>
        <time>2015-03-31T15:29:58Z</time>
      </trkpt>
      <trkpt lat="50.46037" lon="1.79201">
        <ele>16</ele>
        <time>2015-03-31T15:30:09Z</time>
      </trkpt>
      <trkpt lat="50.46041" lon="1.7917">
        <ele>13</ele>
        <time>2015-03-31T15:30:20Z</time>
      </trkpt>
      <trkpt lat="50.46053" lon="1.79117">
        <ele>15</ele>
        <time>2015-03-31T15:30:35Z</time>
      </trkpt>
      <trkpt lat="50.46074" lon="1.7907">
        <ele>13</ele>
        <time>2015-03-31T15:30:51Z</time>
      </trkpt>
      <trkpt lat="50.46078" lon="1.79055">
        <ele>12</ele>
        <time>2015-03-31T15:30:55Z</time>
      </trkpt>
      <trkpt lat="50.46093" lon="1.79021">
        <ele>15</ele>
        <time>2015-03-31T15:31:04Z</time>
      </trkpt>
      <trkpt lat="50.46116" lon="1.78977">
        <ele>20</ele>
        <time>2015-03-31T15:31:18Z</time>
      </trkpt>
      <trkpt lat="50.46127" lon="1.78948">
        <ele>17</ele>
        <time>2015-03-31T15:31:26Z</time>
      </trkpt>
      <trkpt lat="50.46133" lon="1.78912">
        <ele>17</ele>
        <time>2015-03-31T15:31:37Z</time>
      </trkpt>
      <trkpt lat="50.46143" lon="1.78847">
        <ele>15</ele>
        <time>2015-03-31T15:31:56Z</time>
      </trkpt>
      <trkpt lat="50.46156" lon="1.78806">
        <ele>12</ele>
        <time>2015-03-31T15:32:07Z</time>
      </trkpt>
      <trkpt lat="50.4616" lon="1.78796">
        <ele>11</ele>
        <time>2015-03-31T15:32:10Z</time>
      </trkpt>
      <trkpt lat="50.46168" lon="1.78754">
        <ele>10</ele>
        <time>2015-03-31T15:32:21Z</time>
      </trkpt>
      <trkpt lat="50.46175" lon="1.78709">
        <ele>11</ele>
        <time>2015-03-31T15:32:32Z</time>
      </trkpt>
      <trkpt lat="50.46191" lon="1.78663">
        <ele>5</ele>
        <time>2015-03-31T15:32:46Z</time>
      </trkpt>
      <trkpt lat="50.46199" lon="1.78627">
        <ele>7</ele>
        <time>2015-03-31T15:32:54Z</time>
      </trkpt>
      <trkpt lat="50.46218" lon="1.78537">
        <ele>11</ele>
        <time>2015-03-31T15:33:15Z</time>
      </trkpt>
      <trkpt lat="50.46224" lon="1.78526">
        <ele>13</ele>
        <time>2015-03-31T15:33:18Z</time>
      </trkpt>
      <trkpt lat="50.46238" lon="1.78479">
        <ele>12</ele>
        <time>2015-03-31T15:33:30Z</time>
      </trkpt>
      <trkpt lat="50.46252" lon="1.78439">
        <ele>13</ele>
        <time>2015-03-31T15:33:41Z</time>
      </trkpt>
      <trkpt lat="50.46259" lon="1.78409">
        <ele>13</ele>
        <time>2015-03-31T15:33:49Z</time>
      </trkpt>
      <trkpt lat="50.46275" lon="1.78343">
        <ele>8</ele>
        <time>2015-03-31T15:34:04Z</time>
      </trkpt>
      <trkpt lat="50.46295" lon="1.78284">
        <ele>7</ele>
        <time>2015-03-31T15:34:21Z</time>
      </trkpt>
      <trkpt lat="50.46295" lon="1.78276">
        <ele>9</ele>
        <time>2015-03-31T15:34:23Z</time>
      </trkpt>
      <trkpt lat="50.46333" lon="1.78216">
        <ele>9</ele>
        <time>2015-03-31T15:34:40Z</time>
      </trkpt>
      <trkpt lat="50.46375" lon="1.78167">
        <ele>16</ele>
        <time>2015-03-31T15:34:57Z</time>
      </trkpt>
      <trkpt lat="50.46397" lon="1.78131">
        <ele>13</ele>
        <time>2015-03-31T15:35:08Z</time>
      </trkpt>
      <trkpt lat="50.46421" lon="1.78078">
        <ele>14</ele>
        <time>2015-03-31T15:35:23Z</time>
      </trkpt>
      <trkpt lat="50.4644" lon="1.78022">
        <ele>8</ele>
        <time>2015-03-31T15:35:38Z</time>
      </trkpt>
      <trkpt lat="50.4644" lon="1.78017">
        <ele>8</ele>
        <time>2015-03-31T15:35:39Z</time>
      </trkpt>
      <trkpt lat="50.4644" lon="1.77975">
        <ele>6</ele>
        <time>2015-03-31T15:35:50Z</time>
      </trkpt>
      <trkpt lat="50.46429" lon="1.77927">
        <ele>4</ele>
        <time>2015-03-31T15:36:02Z</time>
      </trkpt>
      <trkpt lat="50.46421" lon="1.77886">
        <ele>5</ele>
        <time>2015-03-31T15:36:12Z</time>
      </trkpt>
      <trkpt lat="50.46417" lon="1.7785">
        <ele>7</ele>
        <time>2015-03-31T15:36:23Z</time>
      </trkpt>
      <trkpt lat="50.46436" lon="1.77767">
        <ele>6.6</ele>
        <time>2015-03-31T15:36:42Z</time>
      </trkpt>
      <trkpt lat="50.46447" lon="1.77724">
        <ele>1</ele>
        <time>2015-03-31T15:36:52Z</time>
      </trkpt>
      <trkpt lat="50.46454" lon="1.77702">
        <ele>2</ele>
        <time>2015-03-31T15:36:57Z</time>
      </trkpt>
      <trkpt lat="50.46469" lon="1.77643">
        <ele>8</ele>
        <time>2015-03-31T15:37:10Z</time>
      </trkpt>
      <trkpt lat="50.46479" lon="1.77608">
        <ele>9</ele>
        <time>2015-03-31T15:37:18Z</time>
      </trkpt>
      <trkpt lat="50.46465" lon="1.77593">
        <ele>7</ele>
        <time>2015-03-31T15:37:29Z</time>
      </trkpt>
      <trkpt lat="50.46438" lon="1.77588">
        <ele>10</ele>
        <time>2015-03-31T15:37:40Z</time>
      </trkpt>
      <trkpt lat="50.46451" lon="1.77529">
        <ele>3</ele>
        <time>2015-03-31T15:37:57Z</time>
      </trkpt>
      <trkpt lat="50.46488" lon="1.7752">
        <ele>6</ele>
        <time>2015-03-31T15:38:11Z</time>
      </trkpt>
      <trkpt lat="50.46502" lon="1.77503">
        <ele>9</ele>
        <time>2015-03-31T15:38:18Z</time>
      </trkpt>
      <trkpt lat="50.4667" lon="1.77125">
        <ele>4</ele>
        <time>2015-03-31T15:39:47Z</time>
      </trkpt>
      <trkpt lat="50.46667" lon="1.77083">
        <ele>8</ele>
        <time>2015-03-31T15:39:58Z</time>
      </trkpt>
      <trkpt lat="50.46677" lon="1.7703">
        <ele>5</ele>
        <time>2015-03-31T15:40:09Z</time>
      </trkpt>
      <trkpt lat="50.4673" lon="1.76877">
        <ele>9</ele>
        <time>2015-03-31T15:40:42Z</time>
      </trkpt>
      <trkpt lat="50.46773" lon="1.76826">
        <ele>9</ele>
        <time>2015-03-31T15:40:58Z</time>
      </trkpt>
      <trkpt lat="50.46791" lon="1.76806">
        <ele>8</ele>
        <time>2015-03-31T15:41:10Z</time>
      </trkpt>
      <trkpt lat="50.4679" lon="1.76807">
        <ele>5</ele>
        <time>2015-03-31T15:41:21Z</time>
      </trkpt>
      <trkpt lat="50.46789" lon="1.76807">
        <ele>5</ele>
        <time>2015-03-31T15:41:31Z</time>
      </trkpt>
      <trkpt lat="50.46792" lon="1.76801">
        <ele>5</ele>
        <time>2015-03-31T15:41:42Z</time>
      </trkpt>
      <trkpt lat="50.4676" lon="1.7677">
        <ele>3</ele>
        <time>2015-03-31T15:41:56Z</time>
      </trkpt>
      <trkpt lat="50.46721" lon="1.76765">
        <ele>8</ele>
        <time>2015-03-31T15:42:10Z</time>
      </trkpt>
      <trkpt lat="50.46704" lon="1.76784">
        <ele>12</ele>
        <time>2015-03-31T15:42:18Z</time>
      </trkpt>
      <trkpt lat="50.46689" lon="1.76803">
        <ele>17</ele>
        <time>2015-03-31T15:42:26Z</time>
      </trkpt>
      <trkpt lat="50.46663" lon="1.76826">
        <ele>19</ele>
        <time>2015-03-31T15:42:37Z</time>
      </trkpt>
      <trkpt lat="50.46636" lon="1.76822">
        <ele>17</ele>
        <time>2015-03-31T15:42:48Z</time>
      </trkpt>
      <trkpt lat="50.46613" lon="1.76801">
        <ele>12</ele>
        <time>2015-03-31T15:42:59Z</time>
      </trkpt>
      <trkpt lat="50.46572" lon="1.76814">
        <ele>13</ele>
        <time>2015-03-31T15:43:14Z</time>
      </trkpt>
      <trkpt lat="50.46562" lon="1.76801">
        <ele>14</ele>
        <time>2015-03-31T15:43:21Z</time>
      </trkpt>
      <trkpt lat="50.46545" lon="1.76809">
        <ele>20</ele>
        <time>2015-03-31T15:43:36Z</time>
      </trkpt>
      <trkpt lat="50.46529" lon="1.76835">
        <ele>16</ele>
        <time>2015-03-31T15:43:47Z</time>
      </trkpt>
      <trkpt lat="50.46516" lon="1.76844">
        <ele>14</ele>
        <time>2015-03-31T15:43:54Z</time>
      </trkpt>
      <trkpt lat="50.46489" lon="1.7685">
        <ele>16</ele>
        <time>2015-03-31T15:44:05Z</time>
      </trkpt>
      <trkpt lat="50.46449" lon="1.76844">
        <ele>23</ele>
        <time>2015-03-31T15:44:24Z</time>
      </trkpt>
      <trkpt lat="50.46437" lon="1.76844">
        <ele>17</ele>
        <time>2015-03-31T15:44:29Z</time>
      </trkpt>
      <trkpt lat="50.46397" lon="1.76855">
        <ele>19</ele>
        <time>2015-03-31T15:44:44Z</time>
      </trkpt>
      <trkpt lat="50.46372" lon="1.76846">
        <ele>24</ele>
        <time>2015-03-31T15:44:54Z</time>
      </trkpt>
      <trkpt lat="50.46343" lon="1.76801">
        <ele>28</ele>
        <time>2015-03-31T15:45:08Z</time>
      </trkpt>
      <trkpt lat="50.46321" lon="1.7676">
        <ele>25</ele>
        <time>2015-03-31T15:45:21Z</time>
      </trkpt>
      <trkpt lat="50.46319" lon="1.76757">
        <ele>25</ele>
        <time>2015-03-31T15:45:22Z</time>
      </trkpt>
      <trkpt lat="50.46298" lon="1.76732">
        <ele>28</ele>
        <time>2015-03-31T15:45:33Z</time>
      </trkpt>
      <trkpt lat="50.46273" lon="1.76731">
        <ele>32</ele>
        <time>2015-03-31T15:45:45Z</time>
      </trkpt>
      <trkpt lat="50.46209" lon="1.76722">
        <ele>26</ele>
        <time>2015-03-31T15:46:04Z</time>
      </trkpt>
      <trkpt lat="50.46203" lon="1.76724">
        <ele>29</ele>
        <time>2015-03-31T15:46:06Z</time>
      </trkpt>
      <trkpt lat="50.46184" lon="1.76658">
        <ele>19</ele>
        <time>2015-03-31T15:46:23Z</time>
      </trkpt>
      <trkpt lat="50.46186" lon="1.7664">
        <ele>18</ele>
        <time>2015-03-31T15:46:28Z</time>
      </trkpt>
      <trkpt lat="50.46187" lon="1.76601">
        <ele>17</ele>
        <time>2015-03-31T15:46:40Z</time>
      </trkpt>
      <trkpt lat="50.46192" lon="1.7656">
        <ele>16</ele>
        <time>2015-03-31T15:46:54Z</time>
      </trkpt>
      <trkpt lat="50.46196" lon="1.76539">
        <ele>19</ele>
        <time>2015-03-31T15:47:02Z</time>
      </trkpt>
      <trkpt lat="50.462" lon="1.76518">
        <ele>21</ele>
        <time>2015-03-31T15:47:12Z</time>
      </trkpt>
      <trkpt lat="50.46178" lon="1.76516">
        <ele>34</ele>
        <time>2015-03-31T15:47:32Z</time>
      </trkpt>
      <trkpt lat="50.4611" lon="1.76541">
        <ele>22</ele>
        <time>2015-03-31T15:47:55Z</time>
      </trkpt>
      <trkpt lat="50.46097" lon="1.76514">
        <ele>24</ele>
        <time>2015-03-31T15:48:03Z</time>
      </trkpt>
      <trkpt lat="50.46089" lon="1.76499">
        <ele>23</ele>
        <time>2015-03-31T15:48:07Z</time>
      </trkpt>
      <trkpt lat="50.46071" lon="1.76474">
        <ele>26</ele>
        <time>2015-03-31T15:48:18Z</time>
      </trkpt>
      <trkpt lat="50.46054" lon="1.76437">
        <ele>24</ele>
        <time>2015-03-31T15:48:29Z</time>
      </trkpt>
      <trkpt lat="50.46036" lon="1.76401">
        <ele>24</ele>
        <time>2015-03-31T15:48:40Z</time>
      </trkpt>
      <trkpt lat="50.46026" lon="1.76379">
        <ele>25</ele>
        <time>2015-03-31T15:48:51Z</time>
      </trkpt>
      <trkpt lat="50.46008" lon="1.7634">
        <ele>26</ele>
        <time>2015-03-31T15:49:07Z</time>
      </trkpt>
      <trkpt lat="50.46" lon="1.76309">
        <ele>26</ele>
        <time>2015-03-31T15:49:18Z</time>
      </trkpt>
      <trkpt lat="50.46002" lon="1.76285">
        <ele>20</ele>
        <time>2015-03-31T15:49:24Z</time>
      </trkpt>
      <trkpt lat="50.46002" lon="1.76245">
        <ele>28</ele>
        <time>2015-03-31T15:49:36Z</time>
      </trkpt>
      <trkpt lat="50.46007" lon="1.76237">
        <ele>24</ele>
        <time>2015-03-31T15:49:50Z</time>
      </trkpt>
      <trkpt lat="50.46007" lon="1.76237">
        <ele>24</ele>
        <time>2015-03-31T15:49:58Z</time>
      </trkpt>
      <trkpt lat="50.46007" lon="1.76237">
        <ele>24</ele>
        <time>2015-03-31T15:50:09Z</time>
      </trkpt>
      <trkpt lat="50.46007" lon="1.76237">
        <ele>24</ele>
        <time>2015-03-31T15:50:22Z</time>
      </trkpt>
      <trkpt lat="50.46007" lon="1.76237">
        <ele>24</ele>
        <time>2015-03-31T15:50:34Z</time>
      </trkpt>
      <trkpt lat="50.4601" lon="1.76233">
        <ele>22</ele>
        <time>2015-03-31T15:50:51Z</time>
      </trkpt>
      <trkpt lat="50.46011" lon="1.76232">
        <ele>20</ele>
        <time>2015-03-31T15:50:55Z</time>
      </trkpt>
      <trkpt lat="50.46011" lon="1.76231">
        <ele>21</ele>
        <time>2015-03-31T15:51:03Z</time>
      </trkpt>
      <trkpt lat="50.46013" lon="1.76223">
        <ele>24</ele>
        <time>2015-03-31T15:51:14Z</time>
      </trkpt>
      <trkpt lat="50.46011" lon="1.76195">
        <ele>41</ele>
        <time>2015-03-31T15:51:31Z</time>
      </trkpt>
      <trkpt lat="50.46016" lon="1.76183">
        <ele>44</ele>
        <time>2015-03-31T15:51:39Z</time>
      </trkpt>
      <trkpt lat="50.46021" lon="1.76155">
        <ele>40</ele>
        <time>2015-03-31T15:51:52Z</time>
      </trkpt>
      <trkpt lat="50.46024" lon="1.76148">
        <ele>40</ele>
        <time>2015-03-31T15:51:58Z</time>
      </trkpt>
      <trkpt lat="50.46025" lon="1.76138">
        <ele>39</ele>
        <time>2015-03-31T15:52:09Z</time>
      </trkpt>
      <trkpt lat="50.46013" lon="1.7613">
        <ele>35</ele>
        <time>2015-03-31T15:52:25Z</time>
      </trkpt>
      <trkpt lat="50.46004" lon="1.76125">
        <ele>39</ele>
        <time>2015-03-31T15:52:31Z</time>
      </trkpt>
      <trkpt lat="50.45982" lon="1.76123">
        <ele>32</ele>
        <time>2015-03-31T15:52:42Z</time>
      </trkpt>
      <trkpt lat="50.45957" lon="1.76105">
        <ele>35</ele>
        <time>2015-03-31T15:52:56Z</time>
      </trkpt>
      <trkpt lat="50.4594" lon="1.76108">
        <ele>45</ele>
        <time>2015-03-31T15:53:08Z</time>
      </trkpt>
      <trkpt lat="50.45931" lon="1.7611">
        <ele>47</ele>
        <time>2015-03-31T15:53:15Z</time>
      </trkpt>
      <trkpt lat="50.45913" lon="1.76097">
        <ele>40</ele>
        <time>2015-03-31T15:53:26Z</time>
      </trkpt>
      <trkpt lat="50.45899" lon="1.76087">
        <ele>44</ele>
        <time>2015-03-31T15:53:37Z</time>
      </trkpt>
      <trkpt lat="50.45883" lon="1.76073">
        <ele>42</ele>
        <time>2015-03-31T15:53:48Z</time>
      </trkpt>
      <trkpt lat="50.45872" lon="1.76054">
        <ele>39</ele>
        <time>2015-03-31T15:54:00Z</time>
      </trkpt>
      <trkpt lat="50.45877" lon="1.76046">
        <ele>42</ele>
        <time>2015-03-31T15:54:13Z</time>
      </trkpt>
      <trkpt lat="50.45877" lon="1.76045">
        <ele>41</ele>
        <time>2015-03-31T15:54:21Z</time>
      </trkpt>
      <trkpt lat="50.45877" lon="1.76044">
        <ele>41</ele>
        <time>2015-03-31T15:54:32Z</time>
      </trkpt>
      <trkpt lat="50.45876" lon="1.76042">
        <ele>41</ele>
        <time>2015-03-31T15:54:44Z</time>
      </trkpt>
      <trkpt lat="50.45876" lon="1.76042">
        <ele>42</ele>
        <time>2015-03-31T15:54:54Z</time>
      </trkpt>
      <trkpt lat="50.45876" lon="1.76042">
        <ele>42</ele>
        <time>2015-03-31T15:55:05Z</time>
      </trkpt>
      <trkpt lat="50.45885" lon="1.76031">
        <ele>42</ele>
        <time>2015-03-31T15:55:16Z</time>
      </trkpt>
      <trkpt lat="50.459" lon="1.76004">
        <ele>46</ele>
        <time>2015-03-31T15:55:33Z</time>
      </trkpt>
      <trkpt lat="50.45906" lon="1.75991">
        <ele>46</ele>
        <time>2015-03-31T15:55:40Z</time>
      </trkpt>
      <trkpt lat="50.45914" lon="1.75972">
        <ele>45</ele>
        <time>2015-03-31T15:55:49Z</time>
      </trkpt>
      <trkpt lat="50.45927" lon="1.75939">
        <ele>46</ele>
        <time>2015-03-31T15:56:00Z</time>
      </trkpt>
      <trkpt lat="50.45944" lon="1.75863">
        <ele>46</ele>
        <time>2015-03-31T15:56:21Z</time>
      </trkpt>
      <trkpt lat="50.45945" lon="1.7586">
        <ele>46</ele>
        <time>2015-03-31T15:56:22Z</time>
      </trkpt>
      <trkpt lat="50.45944" lon="1.75819">
        <ele>49</ele>
        <time>2015-03-31T15:56:41Z</time>
      </trkpt>
      <trkpt lat="50.45943" lon="1.7582">
        <ele>50</ele>
        <time>2015-03-31T15:56:45Z</time>
      </trkpt>
      <trkpt lat="50.45931" lon="1.7581">
        <ele>50</ele>
        <time>2015-03-31T15:56:55Z</time>
      </trkpt>
      <trkpt lat="50.45929" lon="1.75786">
        <ele>48</ele>
        <time>2015-03-31T15:57:06Z</time>
      </trkpt>
      <trkpt lat="50.45956" lon="1.75733">
        <ele>40</ele>
        <time>2015-03-31T15:57:27Z</time>
      </trkpt>
      <trkpt lat="50.45967" lon="1.75726">
        <ele>38</ele>
        <time>2015-03-31T15:57:32Z</time>
      </trkpt>
      <trkpt lat="50.45978" lon="1.75723">
        <ele>35</ele>
        <time>2015-03-31T15:57:39Z</time>
      </trkpt>
      <trkpt lat="50.46181" lon="1.75691">
        <ele>23</ele>
        <time>2015-03-31T15:58:39Z</time>
      </trkpt>
      <trkpt lat="50.46192" lon="1.75702">
        <ele>22</ele>
        <time>2015-03-31T15:58:45Z</time>
      </trkpt>
      <trkpt lat="50.46208" lon="1.7573">
        <ele>25</ele>
        <time>2015-03-31T15:58:56Z</time>
      </trkpt>
      <trkpt lat="50.46224" lon="1.75773">
        <ele>27</ele>
        <time>2015-03-31T15:59:14Z</time>
      </trkpt>
      <trkpt lat="50.4623" lon="1.75788">
        <ele>26</ele>
        <time>2015-03-31T15:59:22Z</time>
      </trkpt>
      <trkpt lat="50.46237" lon="1.75802">
        <ele>25</ele>
        <time>2015-03-31T15:59:29Z</time>
      </trkpt>
      <trkpt lat="50.46256" lon="1.75822">
        <ele>26</ele>
        <time>2015-03-31T15:59:43Z</time>
      </trkpt>
      <trkpt lat="50.46268" lon="1.75829">
        <ele>25</ele>
        <time>2015-03-31T15:59:51Z</time>
      </trkpt>
      <trkpt lat="50.46294" lon="1.75836">
        <ele>28</ele>
        <time>2015-03-31T16:00:06Z</time>
      </trkpt>
      <trkpt lat="50.46311" lon="1.75837">
        <ele>31</ele>
        <time>2015-03-31T16:00:13Z</time>
      </trkpt>
      <trkpt lat="50.46363" lon="1.75825">
        <ele>34</ele>
        <time>2015-03-31T16:00:32Z</time>
      </trkpt>
      <trkpt lat="50.46387" lon="1.7584">
        <ele>34</ele>
        <time>2015-03-31T16:00:44Z</time>
      </trkpt>
      <trkpt lat="50.46389" lon="1.75847">
        <ele>32</ele>
        <time>2015-03-31T16:00:46Z</time>
      </trkpt>
      <trkpt lat="50.46405" lon="1.75881">
        <ele>39</ele>
        <time>2015-03-31T16:00:57Z</time>
      </trkpt>
      <trkpt lat="50.46436" lon="1.75934">
        <ele>43</ele>
        <time>2015-03-31T16:01:18Z</time>
      </trkpt>
      <trkpt lat="50.46456" lon="1.75937">
        <ele>43</ele>
        <time>2015-03-31T16:01:28Z</time>
      </trkpt>
      <trkpt lat="50.46459" lon="1.75937">
        <ele>44</ele>
        <time>2015-03-31T16:01:30Z</time>
      </trkpt>
      <trkpt lat="50.46475" lon="1.75947">
        <ele>35</ele>
        <time>2015-03-31T16:01:43Z</time>
      </trkpt>
      <trkpt lat="50.46484" lon="1.7595">
        <ele>37</ele>
        <time>2015-03-31T16:01:52Z</time>
      </trkpt>
      <trkpt lat="50.46502" lon="1.7595">
        <ele>30</ele>
        <time>2015-03-31T16:02:08Z</time>
      </trkpt>
      <trkpt lat="50.46509" lon="1.75949">
        <ele>32</ele>
        <time>2015-03-31T16:02:14Z</time>
      </trkpt>
      <trkpt lat="50.46521" lon="1.75958">
        <ele>36</ele>
        <time>2015-03-31T16:02:32Z</time>
      </trkpt>
      <trkpt lat="50.4653" lon="1.75957">
        <ele>36</ele>
        <time>2015-03-31T16:02:44Z</time>
      </trkpt>
      <trkpt lat="50.46532" lon="1.75952">
        <ele>40</ele>
        <time>2015-03-31T16:02:48Z</time>
      </trkpt>
      <trkpt lat="50.46546" lon="1.75941">
        <ele>46</ele>
        <time>2015-03-31T16:03:08Z</time>
      </trkpt>
      <trkpt lat="50.46547" lon="1.75939">
        <ele>47</ele>
        <time>2015-03-31T16:03:10Z</time>
      </trkpt>
      <trkpt lat="50.46561" lon="1.75947">
        <ele>51</ele>
        <time>2015-03-31T16:03:30Z</time>
      </trkpt>
      <trkpt lat="50.46562" lon="1.75947">
        <ele>52</ele>
        <time>2015-03-31T16:03:31Z</time>
      </trkpt>
      <trkpt lat="50.46565" lon="1.7595">
        <ele>55</ele>
        <time>2015-03-31T16:03:42Z</time>
      </trkpt>
      <trkpt lat="50.46617" lon="1.76027">
        <ele>47</ele>
        <time>2015-03-31T16:04:30Z</time>
      </trkpt>
      <trkpt lat="50.46635" lon="1.76025">
        <ele>47</ele>
        <time>2015-03-31T16:04:37Z</time>
      </trkpt>
      <trkpt lat="50.46667" lon="1.76034">
        <ele>50</ele>
        <time>2015-03-31T16:04:48Z</time>
      </trkpt>
      <trkpt lat="50.46681" lon="1.76034">
        <ele>49</ele>
        <time>2015-03-31T16:04:59Z</time>
      </trkpt>
      <trkpt lat="50.4668" lon="1.76034">
        <ele>49</ele>
        <time>2015-03-31T16:05:18Z</time>
      </trkpt>
      <trkpt lat="50.4668" lon="1.76034">
        <ele>49</ele>
        <time>2015-03-31T16:05:29Z</time>
      </trkpt>
      <trkpt lat="50.4668" lon="1.76034">
        <ele>49</ele>
        <time>2015-03-31T16:05:35Z</time>
      </trkpt>
      <trkpt lat="50.4668" lon="1.76034">
        <ele>49</ele>
        <time>2015-03-31T16:05:43Z</time>
      </trkpt>
      <trkpt lat="50.4668" lon="1.76034">
        <ele>49</ele>
        <time>2015-03-31T16:06:02Z</time>
      </trkpt>
      <trkpt lat="50.4668" lon="1.76034">
        <ele>49</ele>
        <time>2015-03-31T16:06:05Z</time>
      </trkpt>
      <trkpt lat="50.4668" lon="1.76034">
        <ele>49</ele>
        <time>2015-03-31T16:06:23Z</time>
      </trkpt>
      <trkpt lat="50.4668" lon="1.76034">
        <ele>49</ele>
        <time>2015-03-31T16:06:36Z</time>
      </trkpt>
      <trkpt lat="50.4668" lon="1.76033">
        <ele>52</ele>
        <time>2015-03-31T16:06:38Z</time>
      </trkpt>
    </trkseg>
  </trk>
</gpx>